<?xml version="1.0" encoding="UTF-8" standalone="no" ?>
<gpx xmlns="http://www.topografix.com/GPX/1/1" xmlns:xsi="http://www.w3.org/2001/XMLSchema-instance" xsi:schemaLocation="http://www.topografix.com/GPX/1/1 http://www.topografix.com/GPX/1/1/gpx.xsd" version="1.1" creator="VisuGPX - https://www.visugpx.com">
  <metadata>
    <name>2019-06-23 11:14:42</name>
    <desc><![CDATA[2019-06-23 11:14:42]]></desc>
  </metadata>
  <trk>
    <name><![CDATA[2019-06-23 11:14:42]]></name>
    <trkseg>
      <trkpt lat="43.44659" lon="5.85983">
        <ele>333.23</ele>
        <time>2019-06-23T07:04:01Z</time>
      </trkpt>
      <trkpt lat="43.44659" lon="5.85984">
        <ele>333.23</ele>
        <time>2019-06-23T07:04:02Z</time>
      </trkpt>
      <trkpt lat="43.44659" lon="5.85984">
        <ele>325.06</ele>
        <time>2019-06-23T07:04:06Z</time>
      </trkpt>
      <trkpt lat="43.44659" lon="5.85983">
        <ele>325.06</ele>
        <time>2019-06-23T07:04:07Z</time>
      </trkpt>
      <trkpt lat="43.44659" lon="5.85983">
        <ele>323.14</ele>
        <time>2019-06-23T07:04:09Z</time>
      </trkpt>
      <trkpt lat="43.44659" lon="5.85983">
        <ele>322.66</ele>
        <time>2019-06-23T07:04:39Z</time>
      </trkpt>
      <trkpt lat="43.4466" lon="5.85984">
        <ele>322.66</ele>
        <time>2019-06-23T07:05:02Z</time>
      </trkpt>
      <trkpt lat="43.44662" lon="5.85987">
        <ele>322.66</ele>
        <time>2019-06-23T07:05:39Z</time>
      </trkpt>
      <trkpt lat="43.44663" lon="5.85987">
        <ele>322.66</ele>
        <time>2019-06-23T07:06:25Z</time>
      </trkpt>
      <trkpt lat="43.44663" lon="5.85986">
        <ele>322.66</ele>
        <time>2019-06-23T07:07:16Z</time>
      </trkpt>
      <trkpt lat="43.44662" lon="5.85982">
        <ele>322.66</ele>
        <time>2019-06-23T07:08:01Z</time>
      </trkpt>
      <trkpt lat="43.44662" lon="5.8598">
        <ele>322.66</ele>
        <time>2019-06-23T07:08:23Z</time>
      </trkpt>
      <trkpt lat="43.44661" lon="5.85985">
        <ele>322.66</ele>
        <time>2019-06-23T07:08:31Z</time>
      </trkpt>
      <trkpt lat="43.4466" lon="5.85987">
        <ele>322.66</ele>
        <time>2019-06-23T07:08:32Z</time>
      </trkpt>
      <trkpt lat="43.4466" lon="5.85988">
        <ele>322.66</ele>
        <time>2019-06-23T07:08:33Z</time>
      </trkpt>
      <trkpt lat="43.44659" lon="5.85991">
        <ele>322.66</ele>
        <time>2019-06-23T07:08:34Z</time>
      </trkpt>
      <trkpt lat="43.44658" lon="5.85993">
        <ele>322.66</ele>
        <time>2019-06-23T07:08:35Z</time>
      </trkpt>
      <trkpt lat="43.44658" lon="5.85996">
        <ele>322.18</ele>
        <time>2019-06-23T07:08:36Z</time>
      </trkpt>
      <trkpt lat="43.44658" lon="5.85999">
        <ele>322.18</ele>
        <time>2019-06-23T07:08:37Z</time>
      </trkpt>
      <trkpt lat="43.44653" lon="5.86014">
        <ele>322.18</ele>
        <time>2019-06-23T07:08:44Z</time>
      </trkpt>
      <trkpt lat="43.44652" lon="5.86017">
        <ele>322.18</ele>
        <time>2019-06-23T07:08:45Z</time>
      </trkpt>
      <trkpt lat="43.4465" lon="5.86018">
        <ele>322.18</ele>
        <time>2019-06-23T07:08:46Z</time>
      </trkpt>
      <trkpt lat="43.44625" lon="5.86018">
        <ele>322.18</ele>
        <time>2019-06-23T07:08:58Z</time>
      </trkpt>
      <trkpt lat="43.44577" lon="5.86006">
        <ele>324.58</ele>
        <time>2019-06-23T07:09:21Z</time>
      </trkpt>
      <trkpt lat="43.44543" lon="5.85992">
        <ele>325.54</ele>
        <time>2019-06-23T07:09:38Z</time>
      </trkpt>
      <trkpt lat="43.44519" lon="5.85984">
        <ele>326.5</ele>
        <time>2019-06-23T07:09:52Z</time>
      </trkpt>
      <trkpt lat="43.44485" lon="5.8597">
        <ele>327.47</ele>
        <time>2019-06-23T07:10:10Z</time>
      </trkpt>
      <trkpt lat="43.44453" lon="5.85956">
        <ele>328.91</ele>
        <time>2019-06-23T07:10:28Z</time>
      </trkpt>
      <trkpt lat="43.44429" lon="5.85948">
        <ele>329.39</ele>
        <time>2019-06-23T07:10:38Z</time>
      </trkpt>
      <trkpt lat="43.44389" lon="5.85933">
        <ele>330.83</ele>
        <time>2019-06-23T07:10:53Z</time>
      </trkpt>
      <trkpt lat="43.44348" lon="5.85919">
        <ele>331.79</ele>
        <time>2019-06-23T07:11:07Z</time>
      </trkpt>
      <trkpt lat="43.44294" lon="5.85898">
        <ele>334.2</ele>
        <time>2019-06-23T07:11:28Z</time>
      </trkpt>
      <trkpt lat="43.4425" lon="5.8588">
        <ele>336.12</ele>
        <time>2019-06-23T07:11:47Z</time>
      </trkpt>
      <trkpt lat="43.44189" lon="5.85858">
        <ele>338.04</ele>
        <time>2019-06-23T07:12:09Z</time>
      </trkpt>
      <trkpt lat="43.44122" lon="5.85831">
        <ele>340.44</ele>
        <time>2019-06-23T07:12:33Z</time>
      </trkpt>
      <trkpt lat="43.44068" lon="5.85811">
        <ele>343.33</ele>
        <time>2019-06-23T07:12:54Z</time>
      </trkpt>
      <trkpt lat="43.44021" lon="5.85793">
        <ele>346.21</ele>
        <time>2019-06-23T07:13:13Z</time>
      </trkpt>
      <trkpt lat="43.43964" lon="5.85771">
        <ele>349.1</ele>
        <time>2019-06-23T07:13:35Z</time>
      </trkpt>
      <trkpt lat="43.43915" lon="5.85757">
        <ele>351.98</ele>
        <time>2019-06-23T07:13:54Z</time>
      </trkpt>
      <trkpt lat="43.43861" lon="5.85732">
        <ele>354.86</ele>
        <time>2019-06-23T07:14:15Z</time>
      </trkpt>
      <trkpt lat="43.43812" lon="5.85709">
        <ele>355.83</ele>
        <time>2019-06-23T07:14:34Z</time>
      </trkpt>
      <trkpt lat="43.43779" lon="5.85692">
        <ele>356.31</ele>
        <time>2019-06-23T07:14:46Z</time>
      </trkpt>
      <trkpt lat="43.43749" lon="5.85707">
        <ele>356.79</ele>
        <time>2019-06-23T07:14:58Z</time>
      </trkpt>
      <trkpt lat="43.43746" lon="5.85708">
        <ele>356.79</ele>
        <time>2019-06-23T07:14:59Z</time>
      </trkpt>
      <trkpt lat="43.43742" lon="5.85706">
        <ele>356.79</ele>
        <time>2019-06-23T07:15:00Z</time>
      </trkpt>
      <trkpt lat="43.4374" lon="5.85703">
        <ele>356.79</ele>
        <time>2019-06-23T07:15:01Z</time>
      </trkpt>
      <trkpt lat="43.43737" lon="5.85699">
        <ele>356.79</ele>
        <time>2019-06-23T07:15:02Z</time>
      </trkpt>
      <trkpt lat="43.43733" lon="5.85695">
        <ele>356.79</ele>
        <time>2019-06-23T07:15:03Z</time>
      </trkpt>
      <trkpt lat="43.4373" lon="5.85691">
        <ele>356.79</ele>
        <time>2019-06-23T07:15:04Z</time>
      </trkpt>
      <trkpt lat="43.43671" lon="5.85617">
        <ele>358.23</ele>
        <time>2019-06-23T07:15:21Z</time>
      </trkpt>
      <trkpt lat="43.43609" lon="5.85544">
        <ele>359.19</ele>
        <time>2019-06-23T07:15:38Z</time>
      </trkpt>
      <trkpt lat="43.43593" lon="5.85531">
        <ele>359.67</ele>
        <time>2019-06-23T07:15:47Z</time>
      </trkpt>
      <trkpt lat="43.4359" lon="5.85535">
        <ele>359.67</ele>
        <time>2019-06-23T07:15:48Z</time>
      </trkpt>
      <trkpt lat="43.43588" lon="5.85537">
        <ele>359.67</ele>
        <time>2019-06-23T07:15:49Z</time>
      </trkpt>
      <trkpt lat="43.43586" lon="5.85541">
        <ele>359.67</ele>
        <time>2019-06-23T07:15:50Z</time>
      </trkpt>
      <trkpt lat="43.43585" lon="5.85545">
        <ele>359.67</ele>
        <time>2019-06-23T07:15:51Z</time>
      </trkpt>
      <trkpt lat="43.43562" lon="5.8556">
        <ele>360.15</ele>
        <time>2019-06-23T07:15:58Z</time>
      </trkpt>
      <trkpt lat="43.43501" lon="5.85544">
        <ele>357.75</ele>
        <time>2019-06-23T07:16:10Z</time>
      </trkpt>
      <trkpt lat="43.43426" lon="5.85511">
        <ele>354.38</ele>
        <time>2019-06-23T07:16:21Z</time>
      </trkpt>
      <trkpt lat="43.43353" lon="5.8548">
        <ele>351.02</ele>
        <time>2019-06-23T07:16:32Z</time>
      </trkpt>
      <trkpt lat="43.43278" lon="5.85448">
        <ele>347.65</ele>
        <time>2019-06-23T07:16:43Z</time>
      </trkpt>
      <trkpt lat="43.43154" lon="5.85386">
        <ele>346.69</ele>
        <time>2019-06-23T07:17:02Z</time>
      </trkpt>
      <trkpt lat="43.43122" lon="5.85355">
        <ele>347.65</ele>
        <time>2019-06-23T07:17:09Z</time>
      </trkpt>
      <trkpt lat="43.43078" lon="5.85299">
        <ele>351.02</ele>
        <time>2019-06-23T07:17:23Z</time>
      </trkpt>
      <trkpt lat="43.43028" lon="5.8524">
        <ele>351.98</ele>
        <time>2019-06-23T07:17:40Z</time>
      </trkpt>
      <trkpt lat="43.42962" lon="5.85198">
        <ele>354.38</ele>
        <time>2019-06-23T07:17:58Z</time>
      </trkpt>
      <trkpt lat="43.42879" lon="5.85147">
        <ele>354.38</ele>
        <time>2019-06-23T07:18:17Z</time>
      </trkpt>
      <trkpt lat="43.42814" lon="5.8512">
        <ele>355.83</ele>
        <time>2019-06-23T07:18:34Z</time>
      </trkpt>
      <trkpt lat="43.42756" lon="5.85119">
        <ele>356.31</ele>
        <time>2019-06-23T07:18:51Z</time>
      </trkpt>
      <trkpt lat="43.42702" lon="5.85118">
        <ele>357.75</ele>
        <time>2019-06-23T07:19:08Z</time>
      </trkpt>
      <trkpt lat="43.42645" lon="5.85123">
        <ele>356.31</ele>
        <time>2019-06-23T07:19:21Z</time>
      </trkpt>
      <trkpt lat="43.4259" lon="5.85158">
        <ele>359.19</ele>
        <time>2019-06-23T07:19:38Z</time>
      </trkpt>
      <trkpt lat="43.42532" lon="5.85209">
        <ele>359.19</ele>
        <time>2019-06-23T07:19:54Z</time>
      </trkpt>
      <trkpt lat="43.4252" lon="5.8522">
        <ele>357.75</ele>
        <time>2019-06-23T07:19:57Z</time>
      </trkpt>
      <trkpt lat="43.42452" lon="5.85245">
        <ele>357.27</ele>
        <time>2019-06-23T07:20:12Z</time>
      </trkpt>
      <trkpt lat="43.42365" lon="5.85265">
        <ele>353.9</ele>
        <time>2019-06-23T07:20:27Z</time>
      </trkpt>
      <trkpt lat="43.42262" lon="5.85289">
        <ele>351.02</ele>
        <time>2019-06-23T07:20:44Z</time>
      </trkpt>
      <trkpt lat="43.42207" lon="5.85302">
        <ele>347.65</ele>
        <time>2019-06-23T07:20:51Z</time>
      </trkpt>
      <trkpt lat="43.42199" lon="5.85303">
        <ele>347.65</ele>
        <time>2019-06-23T07:20:52Z</time>
      </trkpt>
      <trkpt lat="43.42093" lon="5.85319">
        <ele>344.77</ele>
        <time>2019-06-23T07:21:05Z</time>
      </trkpt>
      <trkpt lat="43.42021" lon="5.85307">
        <ele>341.41</ele>
        <time>2019-06-23T07:21:15Z</time>
      </trkpt>
      <trkpt lat="43.42014" lon="5.85305">
        <ele>341.41</ele>
        <time>2019-06-23T07:21:16Z</time>
      </trkpt>
      <trkpt lat="43.42007" lon="5.85302">
        <ele>340.92</ele>
        <time>2019-06-23T07:21:17Z</time>
      </trkpt>
      <trkpt lat="43.42" lon="5.85297">
        <ele>340.92</ele>
        <time>2019-06-23T07:21:18Z</time>
      </trkpt>
      <trkpt lat="43.41994" lon="5.85293">
        <ele>340.92</ele>
        <time>2019-06-23T07:21:19Z</time>
      </trkpt>
      <trkpt lat="43.41902" lon="5.85217">
        <ele>338.04</ele>
        <time>2019-06-23T07:21:33Z</time>
      </trkpt>
      <trkpt lat="43.41818" lon="5.8515">
        <ele>336.6</ele>
        <time>2019-06-23T07:21:49Z</time>
      </trkpt>
      <trkpt lat="43.41783" lon="5.85111">
        <ele>339.96</ele>
        <time>2019-06-23T07:22:02Z</time>
      </trkpt>
      <trkpt lat="43.41759" lon="5.85056">
        <ele>343.33</ele>
        <time>2019-06-23T07:22:17Z</time>
      </trkpt>
      <trkpt lat="43.41718" lon="5.85014">
        <ele>346.21</ele>
        <time>2019-06-23T07:22:33Z</time>
      </trkpt>
      <trkpt lat="43.41673" lon="5.84992">
        <ele>349.58</ele>
        <time>2019-06-23T07:22:50Z</time>
      </trkpt>
      <trkpt lat="43.41634" lon="5.84994">
        <ele>351.02</ele>
        <time>2019-06-23T07:23:05Z</time>
      </trkpt>
      <trkpt lat="43.41608" lon="5.84992">
        <ele>351.5</ele>
        <time>2019-06-23T07:23:17Z</time>
      </trkpt>
      <trkpt lat="43.41557" lon="5.84985">
        <ele>351.98</ele>
        <time>2019-06-23T07:23:31Z</time>
      </trkpt>
      <trkpt lat="43.41481" lon="5.8497">
        <ele>350.06</ele>
        <time>2019-06-23T07:23:44Z</time>
      </trkpt>
      <trkpt lat="43.41464" lon="5.84963">
        <ele>349.58</ele>
        <time>2019-06-23T07:23:47Z</time>
      </trkpt>
      <trkpt lat="43.41459" lon="5.84959">
        <ele>349.58</ele>
        <time>2019-06-23T07:23:48Z</time>
      </trkpt>
      <trkpt lat="43.41454" lon="5.84956">
        <ele>349.58</ele>
        <time>2019-06-23T07:23:49Z</time>
      </trkpt>
      <trkpt lat="43.41393" lon="5.84886">
        <ele>349.58</ele>
        <time>2019-06-23T07:24:05Z</time>
      </trkpt>
      <trkpt lat="43.41341" lon="5.84813">
        <ele>348.13</ele>
        <time>2019-06-23T07:24:17Z</time>
      </trkpt>
      <trkpt lat="43.41286" lon="5.8471">
        <ele>345.25</ele>
        <time>2019-06-23T07:24:31Z</time>
      </trkpt>
      <trkpt lat="43.41226" lon="5.84591">
        <ele>341.89</ele>
        <time>2019-06-23T07:24:45Z</time>
      </trkpt>
      <trkpt lat="43.41162" lon="5.84502">
        <ele>339</ele>
        <time>2019-06-23T07:24:58Z</time>
      </trkpt>
      <trkpt lat="43.41083" lon="5.8446">
        <ele>337.56</ele>
        <time>2019-06-23T07:25:12Z</time>
      </trkpt>
      <trkpt lat="43.41014" lon="5.84416">
        <ele>339</ele>
        <time>2019-06-23T07:25:27Z</time>
      </trkpt>
      <trkpt lat="43.41011" lon="5.84413">
        <ele>339</ele>
        <time>2019-06-23T07:25:28Z</time>
      </trkpt>
      <trkpt lat="43.40952" lon="5.84359">
        <ele>342.37</ele>
        <time>2019-06-23T07:25:46Z</time>
      </trkpt>
      <trkpt lat="43.40889" lon="5.8433">
        <ele>344.77</ele>
        <time>2019-06-23T07:26:04Z</time>
      </trkpt>
      <trkpt lat="43.40832" lon="5.84319">
        <ele>345.73</ele>
        <time>2019-06-23T07:26:23Z</time>
      </trkpt>
      <trkpt lat="43.40823" lon="5.84314">
        <ele>345.73</ele>
        <time>2019-06-23T07:26:26Z</time>
      </trkpt>
      <trkpt lat="43.40821" lon="5.84311">
        <ele>345.25</ele>
        <time>2019-06-23T07:26:27Z</time>
      </trkpt>
      <trkpt lat="43.4082" lon="5.84309">
        <ele>345.73</ele>
        <time>2019-06-23T07:26:28Z</time>
      </trkpt>
      <trkpt lat="43.40818" lon="5.84308">
        <ele>345.73</ele>
        <time>2019-06-23T07:26:29Z</time>
      </trkpt>
      <trkpt lat="43.40817" lon="5.84307">
        <ele>345.73</ele>
        <time>2019-06-23T07:26:30Z</time>
      </trkpt>
      <trkpt lat="43.40812" lon="5.84303">
        <ele>345.25</ele>
        <time>2019-06-23T07:26:42Z</time>
      </trkpt>
      <trkpt lat="43.40814" lon="5.84305">
        <ele>345.73</ele>
        <time>2019-06-23T07:26:44Z</time>
      </trkpt>
      <trkpt lat="43.40814" lon="5.84307">
        <ele>345.73</ele>
        <time>2019-06-23T07:26:45Z</time>
      </trkpt>
      <trkpt lat="43.40813" lon="5.84308">
        <ele>345.73</ele>
        <time>2019-06-23T07:26:46Z</time>
      </trkpt>
      <trkpt lat="43.40811" lon="5.8431">
        <ele>345.73</ele>
        <time>2019-06-23T07:26:47Z</time>
      </trkpt>
      <trkpt lat="43.4081" lon="5.84312">
        <ele>345.73</ele>
        <time>2019-06-23T07:26:48Z</time>
      </trkpt>
      <trkpt lat="43.40809" lon="5.84315">
        <ele>345.25</ele>
        <time>2019-06-23T07:26:49Z</time>
      </trkpt>
      <trkpt lat="43.40807" lon="5.84319">
        <ele>345.25</ele>
        <time>2019-06-23T07:26:50Z</time>
      </trkpt>
      <trkpt lat="43.40804" lon="5.84322">
        <ele>344.29</ele>
        <time>2019-06-23T07:26:51Z</time>
      </trkpt>
      <trkpt lat="43.40801" lon="5.84328">
        <ele>344.29</ele>
        <time>2019-06-23T07:26:52Z</time>
      </trkpt>
      <trkpt lat="43.40741" lon="5.84401">
        <ele>341.41</ele>
        <time>2019-06-23T07:27:05Z</time>
      </trkpt>
      <trkpt lat="43.40709" lon="5.84432">
        <ele>339</ele>
        <time>2019-06-23T07:27:10Z</time>
      </trkpt>
      <trkpt lat="43.40703" lon="5.8444">
        <ele>339</ele>
        <time>2019-06-23T07:27:11Z</time>
      </trkpt>
      <trkpt lat="43.40699" lon="5.84448">
        <ele>339</ele>
        <time>2019-06-23T07:27:12Z</time>
      </trkpt>
      <trkpt lat="43.40696" lon="5.84457">
        <ele>339</ele>
        <time>2019-06-23T07:27:13Z</time>
      </trkpt>
      <trkpt lat="43.40693" lon="5.84466">
        <ele>338.04</ele>
        <time>2019-06-23T07:27:14Z</time>
      </trkpt>
      <trkpt lat="43.40689" lon="5.84477">
        <ele>337.56</ele>
        <time>2019-06-23T07:27:15Z</time>
      </trkpt>
      <trkpt lat="43.40687" lon="5.84487">
        <ele>337.56</ele>
        <time>2019-06-23T07:27:16Z</time>
      </trkpt>
      <trkpt lat="43.40681" lon="5.84507">
        <ele>336.6</ele>
        <time>2019-06-23T07:27:18Z</time>
      </trkpt>
      <trkpt lat="43.40676" lon="5.84518">
        <ele>336.6</ele>
        <time>2019-06-23T07:27:19Z</time>
      </trkpt>
      <trkpt lat="43.40672" lon="5.84526">
        <ele>336.6</ele>
        <time>2019-06-23T07:27:20Z</time>
      </trkpt>
      <trkpt lat="43.40625" lon="5.84586">
        <ele>334.68</ele>
        <time>2019-06-23T07:27:29Z</time>
      </trkpt>
      <trkpt lat="43.40621" lon="5.84593">
        <ele>334.68</ele>
        <time>2019-06-23T07:27:30Z</time>
      </trkpt>
      <trkpt lat="43.40617" lon="5.846">
        <ele>334.68</ele>
        <time>2019-06-23T07:27:31Z</time>
      </trkpt>
      <trkpt lat="43.40561" lon="5.84702">
        <ele>331.31</ele>
        <time>2019-06-23T07:27:46Z</time>
      </trkpt>
      <trkpt lat="43.40539" lon="5.84755">
        <ele>328.43</ele>
        <time>2019-06-23T07:27:53Z</time>
      </trkpt>
      <trkpt lat="43.40535" lon="5.84762">
        <ele>327.95</ele>
        <time>2019-06-23T07:27:54Z</time>
      </trkpt>
      <trkpt lat="43.4053" lon="5.84767">
        <ele>327.95</ele>
        <time>2019-06-23T07:27:55Z</time>
      </trkpt>
      <trkpt lat="43.40523" lon="5.84771">
        <ele>327.47</ele>
        <time>2019-06-23T07:27:56Z</time>
      </trkpt>
      <trkpt lat="43.40516" lon="5.84773">
        <ele>327.47</ele>
        <time>2019-06-23T07:27:57Z</time>
      </trkpt>
      <trkpt lat="43.40509" lon="5.84772">
        <ele>327.47</ele>
        <time>2019-06-23T07:27:58Z</time>
      </trkpt>
      <trkpt lat="43.40503" lon="5.84771">
        <ele>327.95</ele>
        <time>2019-06-23T07:27:59Z</time>
      </trkpt>
      <trkpt lat="43.40497" lon="5.84768">
        <ele>327.47</ele>
        <time>2019-06-23T07:28:00Z</time>
      </trkpt>
      <trkpt lat="43.40492" lon="5.84765">
        <ele>327.95</ele>
        <time>2019-06-23T07:28:01Z</time>
      </trkpt>
      <trkpt lat="43.40481" lon="5.8476">
        <ele>327.47</ele>
        <time>2019-06-23T07:28:03Z</time>
      </trkpt>
      <trkpt lat="43.40475" lon="5.84758">
        <ele>327.47</ele>
        <time>2019-06-23T07:28:04Z</time>
      </trkpt>
      <trkpt lat="43.40469" lon="5.84757">
        <ele>327.95</ele>
        <time>2019-06-23T07:28:05Z</time>
      </trkpt>
      <trkpt lat="43.40464" lon="5.84756">
        <ele>327.95</ele>
        <time>2019-06-23T07:28:06Z</time>
      </trkpt>
      <trkpt lat="43.40458" lon="5.84756">
        <ele>327.95</ele>
        <time>2019-06-23T07:28:07Z</time>
      </trkpt>
      <trkpt lat="43.40379" lon="5.84759">
        <ele>329.39</ele>
        <time>2019-06-23T07:28:22Z</time>
      </trkpt>
      <trkpt lat="43.40325" lon="5.84772">
        <ele>330.83</ele>
        <time>2019-06-23T07:28:35Z</time>
      </trkpt>
      <trkpt lat="43.40324" lon="5.84777">
        <ele>330.83</ele>
        <time>2019-06-23T07:28:36Z</time>
      </trkpt>
      <trkpt lat="43.40324" lon="5.84782">
        <ele>330.83</ele>
        <time>2019-06-23T07:28:37Z</time>
      </trkpt>
      <trkpt lat="43.40319" lon="5.84847">
        <ele>332.75</ele>
        <time>2019-06-23T07:28:52Z</time>
      </trkpt>
      <trkpt lat="43.40328" lon="5.84899">
        <ele>332.75</ele>
        <time>2019-06-23T07:29:07Z</time>
      </trkpt>
      <trkpt lat="43.4034" lon="5.84932">
        <ele>332.75</ele>
        <time>2019-06-23T07:29:17Z</time>
      </trkpt>
      <trkpt lat="43.40349" lon="5.84978">
        <ele>331.31</ele>
        <time>2019-06-23T07:29:26Z</time>
      </trkpt>
      <trkpt lat="43.40351" lon="5.85006">
        <ele>330.35</ele>
        <time>2019-06-23T07:29:35Z</time>
      </trkpt>
      <trkpt lat="43.4035" lon="5.85007">
        <ele>330.35</ele>
        <time>2019-06-23T07:29:36Z</time>
      </trkpt>
      <trkpt lat="43.40352" lon="5.85005">
        <ele>330.35</ele>
        <time>2019-06-23T07:29:42Z</time>
      </trkpt>
      <trkpt lat="43.40376" lon="5.85037">
        <ele>328.43</ele>
        <time>2019-06-23T07:29:53Z</time>
      </trkpt>
      <trkpt lat="43.40412" lon="5.85112">
        <ele>326.5</ele>
        <time>2019-06-23T07:30:07Z</time>
      </trkpt>
      <trkpt lat="43.40416" lon="5.85118">
        <ele>326.5</ele>
        <time>2019-06-23T07:30:09Z</time>
      </trkpt>
      <trkpt lat="43.40419" lon="5.85119">
        <ele>326.5</ele>
        <time>2019-06-23T07:30:10Z</time>
      </trkpt>
      <trkpt lat="43.40421" lon="5.85121">
        <ele>326.5</ele>
        <time>2019-06-23T07:30:11Z</time>
      </trkpt>
      <trkpt lat="43.40424" lon="5.85122">
        <ele>326.02</ele>
        <time>2019-06-23T07:30:12Z</time>
      </trkpt>
      <trkpt lat="43.40426" lon="5.85124">
        <ele>326.02</ele>
        <time>2019-06-23T07:30:13Z</time>
      </trkpt>
      <trkpt lat="43.40429" lon="5.85127">
        <ele>326.02</ele>
        <time>2019-06-23T07:30:14Z</time>
      </trkpt>
      <trkpt lat="43.4043" lon="5.85129">
        <ele>326.02</ele>
        <time>2019-06-23T07:30:15Z</time>
      </trkpt>
      <trkpt lat="43.40431" lon="5.85132">
        <ele>326.02</ele>
        <time>2019-06-23T07:30:16Z</time>
      </trkpt>
      <trkpt lat="43.40435" lon="5.85135">
        <ele>325.54</ele>
        <time>2019-06-23T07:30:28Z</time>
      </trkpt>
      <trkpt lat="43.40434" lon="5.85134">
        <ele>325.54</ele>
        <time>2019-06-23T07:30:29Z</time>
      </trkpt>
      <trkpt lat="43.40433" lon="5.85133">
        <ele>325.54</ele>
        <time>2019-06-23T07:30:30Z</time>
      </trkpt>
      <trkpt lat="43.40431" lon="5.8513">
        <ele>325.54</ele>
        <time>2019-06-23T07:30:32Z</time>
      </trkpt>
      <trkpt lat="43.40418" lon="5.85123">
        <ele>325.54</ele>
        <time>2019-06-23T07:30:48Z</time>
      </trkpt>
      <trkpt lat="43.4042" lon="5.85132">
        <ele>325.54</ele>
        <time>2019-06-23T07:31:02Z</time>
      </trkpt>
      <trkpt lat="43.40423" lon="5.85142">
        <ele>328.91</ele>
        <time>2019-06-23T07:31:15Z</time>
      </trkpt>
      <trkpt lat="43.40424" lon="5.85151">
        <ele>329.39</ele>
        <time>2019-06-23T07:31:26Z</time>
      </trkpt>
      <trkpt lat="43.40424" lon="5.85162">
        <ele>329.39</ele>
        <time>2019-06-23T07:31:32Z</time>
      </trkpt>
      <trkpt lat="43.40423" lon="5.85174">
        <ele>331.79</ele>
        <time>2019-06-23T07:31:37Z</time>
      </trkpt>
      <trkpt lat="43.40421" lon="5.85186">
        <ele>331.79</ele>
        <time>2019-06-23T07:31:51Z</time>
      </trkpt>
      <trkpt lat="43.40434" lon="5.8522">
        <ele>334.2</ele>
        <time>2019-06-23T07:32:08Z</time>
      </trkpt>
      <trkpt lat="43.40451" lon="5.85257">
        <ele>336.6</ele>
        <time>2019-06-23T07:32:23Z</time>
      </trkpt>
      <trkpt lat="43.4046" lon="5.85268">
        <ele>336.6</ele>
        <time>2019-06-23T07:32:32Z</time>
      </trkpt>
      <trkpt lat="43.40466" lon="5.85296">
        <ele>337.08</ele>
        <time>2019-06-23T07:32:47Z</time>
      </trkpt>
      <trkpt lat="43.40466" lon="5.85343">
        <ele>338.52</ele>
        <time>2019-06-23T07:33:04Z</time>
      </trkpt>
      <trkpt lat="43.40467" lon="5.85376">
        <ele>339</ele>
        <time>2019-06-23T07:33:16Z</time>
      </trkpt>
      <trkpt lat="43.40468" lon="5.85422">
        <ele>339.96</ele>
        <time>2019-06-23T07:33:30Z</time>
      </trkpt>
      <trkpt lat="43.4047" lon="5.85431">
        <ele>339.96</ele>
        <time>2019-06-23T07:33:33Z</time>
      </trkpt>
      <trkpt lat="43.40468" lon="5.85486">
        <ele>341.89</ele>
        <time>2019-06-23T07:33:51Z</time>
      </trkpt>
      <trkpt lat="43.40461" lon="5.85532">
        <ele>344.29</ele>
        <time>2019-06-23T07:34:07Z</time>
      </trkpt>
      <trkpt lat="43.4046" lon="5.85551">
        <ele>344.29</ele>
        <time>2019-06-23T07:34:13Z</time>
      </trkpt>
      <trkpt lat="43.4046" lon="5.85555">
        <ele>344.29</ele>
        <time>2019-06-23T07:34:15Z</time>
      </trkpt>
      <trkpt lat="43.40476" lon="5.85602">
        <ele>344.77</ele>
        <time>2019-06-23T07:34:30Z</time>
      </trkpt>
      <trkpt lat="43.40487" lon="5.85651">
        <ele>343.81</ele>
        <time>2019-06-23T07:34:45Z</time>
      </trkpt>
      <trkpt lat="43.40497" lon="5.85701">
        <ele>343.81</ele>
        <time>2019-06-23T07:35:00Z</time>
      </trkpt>
      <trkpt lat="43.40507" lon="5.85753">
        <ele>343.33</ele>
        <time>2019-06-23T07:35:14Z</time>
      </trkpt>
      <trkpt lat="43.40495" lon="5.85806">
        <ele>341.41</ele>
        <time>2019-06-23T07:35:25Z</time>
      </trkpt>
      <trkpt lat="43.40489" lon="5.85862">
        <ele>340.92</ele>
        <time>2019-06-23T07:35:39Z</time>
      </trkpt>
      <trkpt lat="43.40496" lon="5.85889">
        <ele>341.41</ele>
        <time>2019-06-23T07:36:01Z</time>
      </trkpt>
      <trkpt lat="43.40498" lon="5.85897">
        <ele>341.89</ele>
        <time>2019-06-23T07:36:30Z</time>
      </trkpt>
      <trkpt lat="43.40497" lon="5.85897">
        <ele>341.89</ele>
        <time>2019-06-23T07:36:32Z</time>
      </trkpt>
      <trkpt lat="43.40496" lon="5.85898">
        <ele>341.89</ele>
        <time>2019-06-23T07:36:33Z</time>
      </trkpt>
      <trkpt lat="43.40494" lon="5.85897">
        <ele>341.89</ele>
        <time>2019-06-23T07:36:34Z</time>
      </trkpt>
      <trkpt lat="43.40471" lon="5.85888">
        <ele>340.44</ele>
        <time>2019-06-23T07:36:43Z</time>
      </trkpt>
      <trkpt lat="43.40413" lon="5.85874">
        <ele>339.48</ele>
        <time>2019-06-23T07:36:59Z</time>
      </trkpt>
      <trkpt lat="43.40356" lon="5.85855">
        <ele>339.48</ele>
        <time>2019-06-23T07:37:15Z</time>
      </trkpt>
      <trkpt lat="43.40316" lon="5.85842">
        <ele>341.41</ele>
        <time>2019-06-23T07:37:29Z</time>
      </trkpt>
      <trkpt lat="43.40268" lon="5.85857">
        <ele>341.41</ele>
        <time>2019-06-23T07:37:44Z</time>
      </trkpt>
      <trkpt lat="43.40251" lon="5.85866">
        <ele>339.96</ele>
        <time>2019-06-23T07:37:48Z</time>
      </trkpt>
      <trkpt lat="43.40196" lon="5.85896">
        <ele>339.96</ele>
        <time>2019-06-23T07:38:04Z</time>
      </trkpt>
      <trkpt lat="43.40144" lon="5.85927">
        <ele>339.96</ele>
        <time>2019-06-23T07:38:21Z</time>
      </trkpt>
      <trkpt lat="43.40097" lon="5.85949">
        <ele>339.96</ele>
        <time>2019-06-23T07:38:37Z</time>
      </trkpt>
      <trkpt lat="43.40065" lon="5.85977">
        <ele>341.41</ele>
        <time>2019-06-23T07:38:50Z</time>
      </trkpt>
      <trkpt lat="43.40003" lon="5.8602">
        <ele>341.89</ele>
        <time>2019-06-23T07:39:09Z</time>
      </trkpt>
      <trkpt lat="43.39948" lon="5.86054">
        <ele>342.37</ele>
        <time>2019-06-23T07:39:27Z</time>
      </trkpt>
      <trkpt lat="43.39907" lon="5.86064">
        <ele>343.81</ele>
        <time>2019-06-23T07:39:42Z</time>
      </trkpt>
      <trkpt lat="43.39879" lon="5.86047">
        <ele>344.77</ele>
        <time>2019-06-23T07:39:53Z</time>
      </trkpt>
      <trkpt lat="43.39834" lon="5.86047">
        <ele>346.21</ele>
        <time>2019-06-23T07:40:10Z</time>
      </trkpt>
      <trkpt lat="43.39782" lon="5.86056">
        <ele>346.21</ele>
        <time>2019-06-23T07:40:25Z</time>
      </trkpt>
      <trkpt lat="43.39716" lon="5.86042">
        <ele>346.21</ele>
        <time>2019-06-23T07:40:44Z</time>
      </trkpt>
      <trkpt lat="43.39678" lon="5.86026">
        <ele>349.1</ele>
        <time>2019-06-23T07:41:00Z</time>
      </trkpt>
      <trkpt lat="43.39654" lon="5.86022">
        <ele>351.5</ele>
        <time>2019-06-23T07:41:12Z</time>
      </trkpt>
      <trkpt lat="43.39619" lon="5.86021">
        <ele>354.38</ele>
        <time>2019-06-23T07:41:29Z</time>
      </trkpt>
      <trkpt lat="43.39593" lon="5.86044">
        <ele>355.83</ele>
        <time>2019-06-23T07:41:43Z</time>
      </trkpt>
      <trkpt lat="43.39558" lon="5.86078">
        <ele>357.27</ele>
        <time>2019-06-23T07:42:01Z</time>
      </trkpt>
      <trkpt lat="43.39518" lon="5.86104">
        <ele>359.19</ele>
        <time>2019-06-23T07:42:20Z</time>
      </trkpt>
      <trkpt lat="43.39469" lon="5.86107">
        <ele>359.19</ele>
        <time>2019-06-23T07:42:37Z</time>
      </trkpt>
      <trkpt lat="43.3945" lon="5.86102">
        <ele>359.19</ele>
        <time>2019-06-23T07:42:45Z</time>
      </trkpt>
      <trkpt lat="43.39448" lon="5.86102">
        <ele>359.19</ele>
        <time>2019-06-23T07:42:46Z</time>
      </trkpt>
      <trkpt lat="43.39449" lon="5.86104">
        <ele>358.23</ele>
        <time>2019-06-23T07:42:47Z</time>
      </trkpt>
      <trkpt lat="43.3945" lon="5.86105">
        <ele>358.23</ele>
        <time>2019-06-23T07:42:48Z</time>
      </trkpt>
      <trkpt lat="43.39451" lon="5.86106">
        <ele>357.75</ele>
        <time>2019-06-23T07:42:49Z</time>
      </trkpt>
      <trkpt lat="43.39454" lon="5.86108">
        <ele>357.75</ele>
        <time>2019-06-23T07:42:50Z</time>
      </trkpt>
      <trkpt lat="43.39457" lon="5.8611">
        <ele>357.75</ele>
        <time>2019-06-23T07:42:51Z</time>
      </trkpt>
      <trkpt lat="43.39507" lon="5.86131">
        <ele>356.79</ele>
        <time>2019-06-23T07:43:07Z</time>
      </trkpt>
      <trkpt lat="43.39565" lon="5.86155">
        <ele>353.42</ele>
        <time>2019-06-23T07:43:21Z</time>
      </trkpt>
      <trkpt lat="43.39614" lon="5.86174">
        <ele>353.42</ele>
        <time>2019-06-23T07:43:35Z</time>
      </trkpt>
      <trkpt lat="43.39638" lon="5.86205">
        <ele>351.5</ele>
        <time>2019-06-23T07:43:46Z</time>
      </trkpt>
      <trkpt lat="43.39652" lon="5.86223">
        <ele>349.58</ele>
        <time>2019-06-23T07:43:57Z</time>
      </trkpt>
      <trkpt lat="43.39657" lon="5.86236">
        <ele>349.58</ele>
        <time>2019-06-23T07:44:08Z</time>
      </trkpt>
      <trkpt lat="43.3966" lon="5.86267">
        <ele>349.58</ele>
        <time>2019-06-23T07:44:21Z</time>
      </trkpt>
      <trkpt lat="43.39658" lon="5.86318">
        <ele>350.06</ele>
        <time>2019-06-23T07:44:37Z</time>
      </trkpt>
      <trkpt lat="43.3966" lon="5.86375">
        <ele>350.06</ele>
        <time>2019-06-23T07:44:53Z</time>
      </trkpt>
      <trkpt lat="43.39659" lon="5.86382">
        <ele>350.06</ele>
        <time>2019-06-23T07:44:56Z</time>
      </trkpt>
      <trkpt lat="43.39657" lon="5.86384">
        <ele>350.06</ele>
        <time>2019-06-23T07:44:57Z</time>
      </trkpt>
      <trkpt lat="43.39656" lon="5.86385">
        <ele>350.06</ele>
        <time>2019-06-23T07:44:58Z</time>
      </trkpt>
      <trkpt lat="43.39653" lon="5.86389">
        <ele>349.58</ele>
        <time>2019-06-23T07:45:09Z</time>
      </trkpt>
      <trkpt lat="43.39655" lon="5.8639">
        <ele>349.58</ele>
        <time>2019-06-23T07:45:13Z</time>
      </trkpt>
      <trkpt lat="43.39656" lon="5.86391">
        <ele>349.58</ele>
        <time>2019-06-23T07:45:14Z</time>
      </trkpt>
      <trkpt lat="43.39657" lon="5.86391">
        <ele>349.58</ele>
        <time>2019-06-23T07:45:15Z</time>
      </trkpt>
      <trkpt lat="43.39661" lon="5.86391">
        <ele>349.58</ele>
        <time>2019-06-23T07:45:19Z</time>
      </trkpt>
      <trkpt lat="43.39662" lon="5.86392">
        <ele>349.58</ele>
        <time>2019-06-23T07:45:20Z</time>
      </trkpt>
      <trkpt lat="43.39698" lon="5.8642">
        <ele>349.1</ele>
        <time>2019-06-23T07:45:36Z</time>
      </trkpt>
      <trkpt lat="43.39731" lon="5.8645">
        <ele>348.13</ele>
        <time>2019-06-23T07:45:52Z</time>
      </trkpt>
      <trkpt lat="43.39753" lon="5.86473">
        <ele>348.13</ele>
        <time>2019-06-23T07:46:06Z</time>
      </trkpt>
      <trkpt lat="43.39753" lon="5.86475">
        <ele>348.13</ele>
        <time>2019-06-23T07:46:07Z</time>
      </trkpt>
      <trkpt lat="43.39753" lon="5.86477">
        <ele>348.13</ele>
        <time>2019-06-23T07:46:08Z</time>
      </trkpt>
      <trkpt lat="43.39753" lon="5.86479">
        <ele>348.13</ele>
        <time>2019-06-23T07:46:09Z</time>
      </trkpt>
      <trkpt lat="43.39753" lon="5.86482">
        <ele>348.13</ele>
        <time>2019-06-23T07:46:10Z</time>
      </trkpt>
      <trkpt lat="43.39752" lon="5.86484">
        <ele>348.13</ele>
        <time>2019-06-23T07:46:11Z</time>
      </trkpt>
      <trkpt lat="43.39735" lon="5.86537">
        <ele>348.13</ele>
        <time>2019-06-23T07:46:29Z</time>
      </trkpt>
      <trkpt lat="43.39721" lon="5.86575">
        <ele>349.1</ele>
        <time>2019-06-23T07:46:44Z</time>
      </trkpt>
      <trkpt lat="43.39705" lon="5.86591">
        <ele>349.1</ele>
        <time>2019-06-23T07:46:57Z</time>
      </trkpt>
      <trkpt lat="43.39671" lon="5.86592">
        <ele>349.1</ele>
        <time>2019-06-23T07:47:12Z</time>
      </trkpt>
      <trkpt lat="43.39629" lon="5.86584">
        <ele>349.1</ele>
        <time>2019-06-23T07:47:29Z</time>
      </trkpt>
      <trkpt lat="43.39594" lon="5.86575">
        <ele>349.1</ele>
        <time>2019-06-23T07:47:46Z</time>
      </trkpt>
      <trkpt lat="43.39587" lon="5.86563">
        <ele>349.1</ele>
        <time>2019-06-23T07:47:57Z</time>
      </trkpt>
      <trkpt lat="43.39589" lon="5.86536">
        <ele>349.1</ele>
        <time>2019-06-23T07:48:11Z</time>
      </trkpt>
      <trkpt lat="43.39601" lon="5.86455">
        <ele>348.62</ele>
        <time>2019-06-23T07:48:32Z</time>
      </trkpt>
      <trkpt lat="43.39609" lon="5.86395">
        <ele>350.06</ele>
        <time>2019-06-23T07:48:49Z</time>
      </trkpt>
      <trkpt lat="43.39608" lon="5.86392">
        <ele>350.06</ele>
        <time>2019-06-23T07:48:50Z</time>
      </trkpt>
      <trkpt lat="43.39607" lon="5.8639">
        <ele>350.06</ele>
        <time>2019-06-23T07:48:51Z</time>
      </trkpt>
      <trkpt lat="43.39606" lon="5.86389">
        <ele>350.06</ele>
        <time>2019-06-23T07:48:52Z</time>
      </trkpt>
      <trkpt lat="43.39604" lon="5.86388">
        <ele>350.54</ele>
        <time>2019-06-23T07:48:53Z</time>
      </trkpt>
      <trkpt lat="43.39585" lon="5.86388">
        <ele>351.02</ele>
        <time>2019-06-23T07:49:03Z</time>
      </trkpt>
      <trkpt lat="43.39584" lon="5.86391">
        <ele>351.02</ele>
        <time>2019-06-23T07:49:04Z</time>
      </trkpt>
      <trkpt lat="43.39583" lon="5.86395">
        <ele>351.02</ele>
        <time>2019-06-23T07:49:05Z</time>
      </trkpt>
      <trkpt lat="43.39576" lon="5.86452">
        <ele>350.54</ele>
        <time>2019-06-23T07:49:18Z</time>
      </trkpt>
      <trkpt lat="43.39574" lon="5.86453">
        <ele>350.54</ele>
        <time>2019-06-23T07:49:19Z</time>
      </trkpt>
      <trkpt lat="43.39571" lon="5.86453">
        <ele>350.54</ele>
        <time>2019-06-23T07:49:20Z</time>
      </trkpt>
      <trkpt lat="43.39535" lon="5.86442">
        <ele>350.54</ele>
        <time>2019-06-23T07:49:34Z</time>
      </trkpt>
      <trkpt lat="43.39533" lon="5.86436">
        <ele>351.02</ele>
        <time>2019-06-23T07:49:36Z</time>
      </trkpt>
      <trkpt lat="43.39533" lon="5.86432">
        <ele>351.02</ele>
        <time>2019-06-23T07:49:37Z</time>
      </trkpt>
      <trkpt lat="43.39533" lon="5.8643">
        <ele>351.02</ele>
        <time>2019-06-23T07:49:38Z</time>
      </trkpt>
      <trkpt lat="43.39534" lon="5.86426">
        <ele>351.02</ele>
        <time>2019-06-23T07:49:39Z</time>
      </trkpt>
      <trkpt lat="43.39535" lon="5.864">
        <ele>352.46</ele>
        <time>2019-06-23T07:49:46Z</time>
      </trkpt>
      <trkpt lat="43.39533" lon="5.86397">
        <ele>352.46</ele>
        <time>2019-06-23T07:49:47Z</time>
      </trkpt>
      <trkpt lat="43.39532" lon="5.86395">
        <ele>352.94</ele>
        <time>2019-06-23T07:49:48Z</time>
      </trkpt>
      <trkpt lat="43.3953" lon="5.86394">
        <ele>352.94</ele>
        <time>2019-06-23T07:49:49Z</time>
      </trkpt>
      <trkpt lat="43.39528" lon="5.86395">
        <ele>353.42</ele>
        <time>2019-06-23T07:49:50Z</time>
      </trkpt>
      <trkpt lat="43.39526" lon="5.86395">
        <ele>353.9</ele>
        <time>2019-06-23T07:49:51Z</time>
      </trkpt>
      <trkpt lat="43.39524" lon="5.86397">
        <ele>354.38</ele>
        <time>2019-06-23T07:49:52Z</time>
      </trkpt>
      <trkpt lat="43.39522" lon="5.864">
        <ele>353.9</ele>
        <time>2019-06-23T07:49:53Z</time>
      </trkpt>
      <trkpt lat="43.3952" lon="5.86404">
        <ele>353.9</ele>
        <time>2019-06-23T07:49:54Z</time>
      </trkpt>
      <trkpt lat="43.39519" lon="5.86407">
        <ele>353.9</ele>
        <time>2019-06-23T07:49:55Z</time>
      </trkpt>
      <trkpt lat="43.39518" lon="5.86412">
        <ele>353.9</ele>
        <time>2019-06-23T07:49:56Z</time>
      </trkpt>
      <trkpt lat="43.39517" lon="5.86417">
        <ele>353.9</ele>
        <time>2019-06-23T07:49:57Z</time>
      </trkpt>
      <trkpt lat="43.39502" lon="5.8649">
        <ele>352.46</ele>
        <time>2019-06-23T07:50:11Z</time>
      </trkpt>
      <trkpt lat="43.39475" lon="5.86601">
        <ele>351.02</ele>
        <time>2019-06-23T07:50:30Z</time>
      </trkpt>
      <trkpt lat="43.3946" lon="5.86717">
        <ele>351.02</ele>
        <time>2019-06-23T07:50:49Z</time>
      </trkpt>
      <trkpt lat="43.39479" lon="5.86843">
        <ele>350.06</ele>
        <time>2019-06-23T07:51:09Z</time>
      </trkpt>
      <trkpt lat="43.39498" lon="5.86953">
        <ele>349.58</ele>
        <time>2019-06-23T07:51:26Z</time>
      </trkpt>
      <trkpt lat="43.39525" lon="5.87083">
        <ele>349.1</ele>
        <time>2019-06-23T07:51:45Z</time>
      </trkpt>
      <trkpt lat="43.39555" lon="5.87186">
        <ele>347.17</ele>
        <time>2019-06-23T07:52:03Z</time>
      </trkpt>
      <trkpt lat="43.39588" lon="5.87305">
        <ele>347.17</ele>
        <time>2019-06-23T07:52:21Z</time>
      </trkpt>
      <trkpt lat="43.39627" lon="5.87448">
        <ele>346.21</ele>
        <time>2019-06-23T07:52:42Z</time>
      </trkpt>
      <trkpt lat="43.39654" lon="5.87553">
        <ele>346.21</ele>
        <time>2019-06-23T07:53:00Z</time>
      </trkpt>
      <trkpt lat="43.39683" lon="5.87658">
        <ele>346.21</ele>
        <time>2019-06-23T07:53:19Z</time>
      </trkpt>
      <trkpt lat="43.39709" lon="5.87756">
        <ele>346.21</ele>
        <time>2019-06-23T07:53:38Z</time>
      </trkpt>
      <trkpt lat="43.39741" lon="5.87878">
        <ele>346.21</ele>
        <time>2019-06-23T07:54:02Z</time>
      </trkpt>
      <trkpt lat="43.39766" lon="5.87972">
        <ele>349.1</ele>
        <time>2019-06-23T07:54:21Z</time>
      </trkpt>
      <trkpt lat="43.39785" lon="5.88047">
        <ele>350.06</ele>
        <time>2019-06-23T07:54:35Z</time>
      </trkpt>
      <trkpt lat="43.39815" lon="5.88158">
        <ele>351.5</ele>
        <time>2019-06-23T07:54:52Z</time>
      </trkpt>
      <trkpt lat="43.39833" lon="5.88228">
        <ele>351.98</ele>
        <time>2019-06-23T07:55:02Z</time>
      </trkpt>
      <trkpt lat="43.39839" lon="5.88268">
        <ele>351.98</ele>
        <time>2019-06-23T07:55:08Z</time>
      </trkpt>
      <trkpt lat="43.39851" lon="5.88383">
        <ele>350.06</ele>
        <time>2019-06-23T07:55:23Z</time>
      </trkpt>
      <trkpt lat="43.39872" lon="5.8853">
        <ele>348.13</ele>
        <time>2019-06-23T07:55:39Z</time>
      </trkpt>
      <trkpt lat="43.39907" lon="5.8865">
        <ele>347.65</ele>
        <time>2019-06-23T07:55:54Z</time>
      </trkpt>
      <trkpt lat="43.39951" lon="5.88746">
        <ele>346.69</ele>
        <time>2019-06-23T07:56:08Z</time>
      </trkpt>
      <trkpt lat="43.39952" lon="5.88753">
        <ele>346.21</ele>
        <time>2019-06-23T07:56:09Z</time>
      </trkpt>
      <trkpt lat="43.39951" lon="5.88767">
        <ele>346.21</ele>
        <time>2019-06-23T07:56:11Z</time>
      </trkpt>
      <trkpt lat="43.39952" lon="5.88775">
        <ele>345.25</ele>
        <time>2019-06-23T07:56:12Z</time>
      </trkpt>
      <trkpt lat="43.39954" lon="5.88781">
        <ele>345.25</ele>
        <time>2019-06-23T07:56:13Z</time>
      </trkpt>
      <trkpt lat="43.39955" lon="5.88787">
        <ele>345.25</ele>
        <time>2019-06-23T07:56:14Z</time>
      </trkpt>
      <trkpt lat="43.39956" lon="5.88794">
        <ele>345.25</ele>
        <time>2019-06-23T07:56:15Z</time>
      </trkpt>
      <trkpt lat="43.39965" lon="5.88857">
        <ele>344.29</ele>
        <time>2019-06-23T07:56:27Z</time>
      </trkpt>
      <trkpt lat="43.39974" lon="5.88925">
        <ele>344.29</ele>
        <time>2019-06-23T07:56:42Z</time>
      </trkpt>
      <trkpt lat="43.39993" lon="5.89003">
        <ele>344.29</ele>
        <time>2019-06-23T07:56:57Z</time>
      </trkpt>
      <trkpt lat="43.40008" lon="5.89065">
        <ele>345.73</ele>
        <time>2019-06-23T07:57:10Z</time>
      </trkpt>
      <trkpt lat="43.40008" lon="5.89083">
        <ele>345.73</ele>
        <time>2019-06-23T07:57:13Z</time>
      </trkpt>
      <trkpt lat="43.40008" lon="5.89089">
        <ele>345.73</ele>
        <time>2019-06-23T07:57:14Z</time>
      </trkpt>
      <trkpt lat="43.40019" lon="5.8912">
        <ele>344.29</ele>
        <time>2019-06-23T07:57:20Z</time>
      </trkpt>
      <trkpt lat="43.40037" lon="5.89172">
        <ele>344.29</ele>
        <time>2019-06-23T07:57:33Z</time>
      </trkpt>
      <trkpt lat="43.4004" lon="5.892">
        <ele>347.17</ele>
        <time>2019-06-23T07:57:43Z</time>
      </trkpt>
      <trkpt lat="43.40049" lon="5.89257">
        <ele>349.1</ele>
        <time>2019-06-23T07:57:57Z</time>
      </trkpt>
      <trkpt lat="43.40055" lon="5.89326">
        <ele>351.98</ele>
        <time>2019-06-23T07:58:15Z</time>
      </trkpt>
      <trkpt lat="43.40063" lon="5.89391">
        <ele>354.38</ele>
        <time>2019-06-23T07:58:31Z</time>
      </trkpt>
      <trkpt lat="43.40079" lon="5.89476">
        <ele>355.83</ele>
        <time>2019-06-23T07:58:48Z</time>
      </trkpt>
      <trkpt lat="43.40084" lon="5.89538">
        <ele>356.79</ele>
        <time>2019-06-23T07:59:02Z</time>
      </trkpt>
      <trkpt lat="43.40089" lon="5.89602">
        <ele>357.75</ele>
        <time>2019-06-23T07:59:15Z</time>
      </trkpt>
      <trkpt lat="43.40092" lon="5.89673">
        <ele>359.19</ele>
        <time>2019-06-23T07:59:31Z</time>
      </trkpt>
      <trkpt lat="43.401" lon="5.89737">
        <ele>357.75</ele>
        <time>2019-06-23T07:59:44Z</time>
      </trkpt>
      <trkpt lat="43.40101" lon="5.89744">
        <ele>358.23</ele>
        <time>2019-06-23T07:59:45Z</time>
      </trkpt>
      <trkpt lat="43.40098" lon="5.8982">
        <ele>355.83</ele>
        <time>2019-06-23T07:59:58Z</time>
      </trkpt>
      <trkpt lat="43.40097" lon="5.89833">
        <ele>354.86</ele>
        <time>2019-06-23T08:00:00Z</time>
      </trkpt>
      <trkpt lat="43.40094" lon="5.89839">
        <ele>354.38</ele>
        <time>2019-06-23T08:00:01Z</time>
      </trkpt>
      <trkpt lat="43.40058" lon="5.89916">
        <ele>353.9</ele>
        <time>2019-06-23T08:00:14Z</time>
      </trkpt>
      <trkpt lat="43.40063" lon="5.89955">
        <ele>354.38</ele>
        <time>2019-06-23T08:00:23Z</time>
      </trkpt>
      <trkpt lat="43.40073" lon="5.89977">
        <ele>352.94</ele>
        <time>2019-06-23T08:00:27Z</time>
      </trkpt>
      <trkpt lat="43.40101" lon="5.9004">
        <ele>351.02</ele>
        <time>2019-06-23T08:00:36Z</time>
      </trkpt>
      <trkpt lat="43.40139" lon="5.90168">
        <ele>349.58</ele>
        <time>2019-06-23T08:00:53Z</time>
      </trkpt>
      <trkpt lat="43.4017" lon="5.90275">
        <ele>349.1</ele>
        <time>2019-06-23T08:01:10Z</time>
      </trkpt>
      <trkpt lat="43.40186" lon="5.90355">
        <ele>349.1</ele>
        <time>2019-06-23T08:01:25Z</time>
      </trkpt>
      <trkpt lat="43.40191" lon="5.90439">
        <ele>349.1</ele>
        <time>2019-06-23T08:01:42Z</time>
      </trkpt>
      <trkpt lat="43.40202" lon="5.90493">
        <ele>350.54</ele>
        <time>2019-06-23T08:01:55Z</time>
      </trkpt>
      <trkpt lat="43.40217" lon="5.90537">
        <ele>351.98</ele>
        <time>2019-06-23T08:02:07Z</time>
      </trkpt>
      <trkpt lat="43.40229" lon="5.90571">
        <ele>352.94</ele>
        <time>2019-06-23T08:02:19Z</time>
      </trkpt>
      <trkpt lat="43.40243" lon="5.90609">
        <ele>354.86</ele>
        <time>2019-06-23T08:02:32Z</time>
      </trkpt>
      <trkpt lat="43.40263" lon="5.90688">
        <ele>354.38</ele>
        <time>2019-06-23T08:02:49Z</time>
      </trkpt>
      <trkpt lat="43.40274" lon="5.90735">
        <ele>353.42</ele>
        <time>2019-06-23T08:02:58Z</time>
      </trkpt>
      <trkpt lat="43.40274" lon="5.90741">
        <ele>352.94</ele>
        <time>2019-06-23T08:02:59Z</time>
      </trkpt>
      <trkpt lat="43.40279" lon="5.90785">
        <ele>349.1</ele>
        <time>2019-06-23T08:03:05Z</time>
      </trkpt>
      <trkpt lat="43.40281" lon="5.90791">
        <ele>349.1</ele>
        <time>2019-06-23T08:03:06Z</time>
      </trkpt>
      <trkpt lat="43.40284" lon="5.90796">
        <ele>348.13</ele>
        <time>2019-06-23T08:03:07Z</time>
      </trkpt>
      <trkpt lat="43.40288" lon="5.908">
        <ele>347.65</ele>
        <time>2019-06-23T08:03:08Z</time>
      </trkpt>
      <trkpt lat="43.40292" lon="5.90801">
        <ele>346.69</ele>
        <time>2019-06-23T08:03:09Z</time>
      </trkpt>
      <trkpt lat="43.40297" lon="5.90803">
        <ele>346.21</ele>
        <time>2019-06-23T08:03:10Z</time>
      </trkpt>
      <trkpt lat="43.40307" lon="5.90807">
        <ele>344.29</ele>
        <time>2019-06-23T08:03:12Z</time>
      </trkpt>
      <trkpt lat="43.40313" lon="5.90812">
        <ele>343.81</ele>
        <time>2019-06-23T08:03:13Z</time>
      </trkpt>
      <trkpt lat="43.40318" lon="5.90819">
        <ele>343.81</ele>
        <time>2019-06-23T08:03:14Z</time>
      </trkpt>
      <trkpt lat="43.40323" lon="5.90827">
        <ele>343.33</ele>
        <time>2019-06-23T08:03:15Z</time>
      </trkpt>
      <trkpt lat="43.40326" lon="5.90835">
        <ele>343.33</ele>
        <time>2019-06-23T08:03:16Z</time>
      </trkpt>
      <trkpt lat="43.4033" lon="5.90843">
        <ele>343.33</ele>
        <time>2019-06-23T08:03:17Z</time>
      </trkpt>
      <trkpt lat="43.40336" lon="5.90858">
        <ele>340.92</ele>
        <time>2019-06-23T08:03:19Z</time>
      </trkpt>
      <trkpt lat="43.40338" lon="5.90865">
        <ele>340.44</ele>
        <time>2019-06-23T08:03:20Z</time>
      </trkpt>
      <trkpt lat="43.40343" lon="5.90888">
        <ele>339</ele>
        <time>2019-06-23T08:03:23Z</time>
      </trkpt>
      <trkpt lat="43.40347" lon="5.90908">
        <ele>338.52</ele>
        <time>2019-06-23T08:03:25Z</time>
      </trkpt>
      <trkpt lat="43.4035" lon="5.90916">
        <ele>337.08</ele>
        <time>2019-06-23T08:03:26Z</time>
      </trkpt>
      <trkpt lat="43.40355" lon="5.90925">
        <ele>337.08</ele>
        <time>2019-06-23T08:03:27Z</time>
      </trkpt>
      <trkpt lat="43.40361" lon="5.90932">
        <ele>335.64</ele>
        <time>2019-06-23T08:03:28Z</time>
      </trkpt>
      <trkpt lat="43.40369" lon="5.90938">
        <ele>335.16</ele>
        <time>2019-06-23T08:03:29Z</time>
      </trkpt>
      <trkpt lat="43.40377" lon="5.90943">
        <ele>334.68</ele>
        <time>2019-06-23T08:03:30Z</time>
      </trkpt>
      <trkpt lat="43.40384" lon="5.90946">
        <ele>333.71</ele>
        <time>2019-06-23T08:03:31Z</time>
      </trkpt>
      <trkpt lat="43.40391" lon="5.90949">
        <ele>333.23</ele>
        <time>2019-06-23T08:03:32Z</time>
      </trkpt>
      <trkpt lat="43.40413" lon="5.9096">
        <ele>331.79</ele>
        <time>2019-06-23T08:03:35Z</time>
      </trkpt>
      <trkpt lat="43.40419" lon="5.90966">
        <ele>331.31</ele>
        <time>2019-06-23T08:03:36Z</time>
      </trkpt>
      <trkpt lat="43.40425" lon="5.90974">
        <ele>331.31</ele>
        <time>2019-06-23T08:03:37Z</time>
      </trkpt>
      <trkpt lat="43.40429" lon="5.90982">
        <ele>330.35</ele>
        <time>2019-06-23T08:03:38Z</time>
      </trkpt>
      <trkpt lat="43.40433" lon="5.90993">
        <ele>329.87</ele>
        <time>2019-06-23T08:03:39Z</time>
      </trkpt>
      <trkpt lat="43.40437" lon="5.91004">
        <ele>329.87</ele>
        <time>2019-06-23T08:03:40Z</time>
      </trkpt>
      <trkpt lat="43.40473" lon="5.91107">
        <ele>326.99</ele>
        <time>2019-06-23T08:03:51Z</time>
      </trkpt>
      <trkpt lat="43.40477" lon="5.91113">
        <ele>326.5</ele>
        <time>2019-06-23T08:03:52Z</time>
      </trkpt>
      <trkpt lat="43.40481" lon="5.91117">
        <ele>326.5</ele>
        <time>2019-06-23T08:03:53Z</time>
      </trkpt>
      <trkpt lat="43.40486" lon="5.91121">
        <ele>326.5</ele>
        <time>2019-06-23T08:03:54Z</time>
      </trkpt>
      <trkpt lat="43.4049" lon="5.91123">
        <ele>326.02</ele>
        <time>2019-06-23T08:03:55Z</time>
      </trkpt>
      <trkpt lat="43.40495" lon="5.91124">
        <ele>325.54</ele>
        <time>2019-06-23T08:03:56Z</time>
      </trkpt>
      <trkpt lat="43.405" lon="5.91125">
        <ele>325.06</ele>
        <time>2019-06-23T08:03:57Z</time>
      </trkpt>
      <trkpt lat="43.40505" lon="5.91127">
        <ele>325.06</ele>
        <time>2019-06-23T08:03:58Z</time>
      </trkpt>
      <trkpt lat="43.40508" lon="5.9113">
        <ele>325.06</ele>
        <time>2019-06-23T08:03:59Z</time>
      </trkpt>
      <trkpt lat="43.4051" lon="5.91136">
        <ele>325.06</ele>
        <time>2019-06-23T08:04:00Z</time>
      </trkpt>
      <trkpt lat="43.40511" lon="5.91142">
        <ele>324.58</ele>
        <time>2019-06-23T08:04:01Z</time>
      </trkpt>
      <trkpt lat="43.40531" lon="5.91228">
        <ele>323.14</ele>
        <time>2019-06-23T08:04:13Z</time>
      </trkpt>
      <trkpt lat="43.40531" lon="5.91235">
        <ele>323.14</ele>
        <time>2019-06-23T08:04:14Z</time>
      </trkpt>
      <trkpt lat="43.40533" lon="5.91257">
        <ele>322.66</ele>
        <time>2019-06-23T08:04:17Z</time>
      </trkpt>
      <trkpt lat="43.40534" lon="5.91265">
        <ele>322.66</ele>
        <time>2019-06-23T08:04:18Z</time>
      </trkpt>
      <trkpt lat="43.40564" lon="5.91356">
        <ele>322.18</ele>
        <time>2019-06-23T08:04:33Z</time>
      </trkpt>
      <trkpt lat="43.40583" lon="5.91412">
        <ele>321.7</ele>
        <time>2019-06-23T08:04:44Z</time>
      </trkpt>
      <trkpt lat="43.40585" lon="5.91444">
        <ele>321.7</ele>
        <time>2019-06-23T08:04:49Z</time>
      </trkpt>
      <trkpt lat="43.40584" lon="5.9155">
        <ele>320.74</ele>
        <time>2019-06-23T08:05:05Z</time>
      </trkpt>
      <trkpt lat="43.40583" lon="5.91603">
        <ele>320.26</ele>
        <time>2019-06-23T08:05:14Z</time>
      </trkpt>
      <trkpt lat="43.40583" lon="5.9161">
        <ele>320.26</ele>
        <time>2019-06-23T08:05:15Z</time>
      </trkpt>
      <trkpt lat="43.40586" lon="5.91701">
        <ele>317.85</ele>
        <time>2019-06-23T08:05:30Z</time>
      </trkpt>
      <trkpt lat="43.40586" lon="5.91733">
        <ele>315.93</ele>
        <time>2019-06-23T08:05:34Z</time>
      </trkpt>
      <trkpt lat="43.40585" lon="5.91743">
        <ele>315.93</ele>
        <time>2019-06-23T08:05:35Z</time>
      </trkpt>
      <trkpt lat="43.40576" lon="5.91777">
        <ele>314.01</ele>
        <time>2019-06-23T08:05:38Z</time>
      </trkpt>
      <trkpt lat="43.40569" lon="5.91811">
        <ele>312.09</ele>
        <time>2019-06-23T08:05:41Z</time>
      </trkpt>
      <trkpt lat="43.40569" lon="5.91823">
        <ele>312.09</ele>
        <time>2019-06-23T08:05:42Z</time>
      </trkpt>
      <trkpt lat="43.4057" lon="5.91835">
        <ele>311.6</ele>
        <time>2019-06-23T08:05:43Z</time>
      </trkpt>
      <trkpt lat="43.40575" lon="5.91859">
        <ele>310.64</ele>
        <time>2019-06-23T08:05:45Z</time>
      </trkpt>
      <trkpt lat="43.40578" lon="5.91871">
        <ele>310.16</ele>
        <time>2019-06-23T08:05:46Z</time>
      </trkpt>
      <trkpt lat="43.40583" lon="5.91883">
        <ele>309.68</ele>
        <time>2019-06-23T08:05:47Z</time>
      </trkpt>
      <trkpt lat="43.40588" lon="5.91893">
        <ele>309.68</ele>
        <time>2019-06-23T08:05:48Z</time>
      </trkpt>
      <trkpt lat="43.40595" lon="5.91902">
        <ele>308.72</ele>
        <time>2019-06-23T08:05:49Z</time>
      </trkpt>
      <trkpt lat="43.40601" lon="5.91909">
        <ele>308.72</ele>
        <time>2019-06-23T08:05:50Z</time>
      </trkpt>
      <trkpt lat="43.40618" lon="5.9193">
        <ele>307.28</ele>
        <time>2019-06-23T08:05:53Z</time>
      </trkpt>
      <trkpt lat="43.4065" lon="5.91969">
        <ele>305.84</ele>
        <time>2019-06-23T08:06:00Z</time>
      </trkpt>
      <trkpt lat="43.40654" lon="5.91972">
        <ele>305.84</ele>
        <time>2019-06-23T08:06:01Z</time>
      </trkpt>
      <trkpt lat="43.40658" lon="5.91974">
        <ele>305.84</ele>
        <time>2019-06-23T08:06:02Z</time>
      </trkpt>
      <trkpt lat="43.4066" lon="5.91977">
        <ele>305.84</ele>
        <time>2019-06-23T08:06:03Z</time>
      </trkpt>
      <trkpt lat="43.40661" lon="5.9198">
        <ele>305.84</ele>
        <time>2019-06-23T08:06:04Z</time>
      </trkpt>
      <trkpt lat="43.4066" lon="5.91984">
        <ele>305.84</ele>
        <time>2019-06-23T08:06:05Z</time>
      </trkpt>
      <trkpt lat="43.40659" lon="5.91987">
        <ele>305.84</ele>
        <time>2019-06-23T08:06:06Z</time>
      </trkpt>
      <trkpt lat="43.40657" lon="5.91991">
        <ele>305.84</ele>
        <time>2019-06-23T08:06:07Z</time>
      </trkpt>
      <trkpt lat="43.40656" lon="5.91994">
        <ele>305.84</ele>
        <time>2019-06-23T08:06:08Z</time>
      </trkpt>
      <trkpt lat="43.40655" lon="5.91998">
        <ele>305.84</ele>
        <time>2019-06-23T08:06:09Z</time>
      </trkpt>
      <trkpt lat="43.40655" lon="5.92041">
        <ele>305.36</ele>
        <time>2019-06-23T08:06:21Z</time>
      </trkpt>
      <trkpt lat="43.40657" lon="5.92093">
        <ele>303.91</ele>
        <time>2019-06-23T08:06:33Z</time>
      </trkpt>
      <trkpt lat="43.40664" lon="5.92138">
        <ele>303.43</ele>
        <time>2019-06-23T08:06:45Z</time>
      </trkpt>
      <trkpt lat="43.40677" lon="5.92184">
        <ele>302.95</ele>
        <time>2019-06-23T08:06:57Z</time>
      </trkpt>
      <trkpt lat="43.40696" lon="5.92219">
        <ele>301.51</ele>
        <time>2019-06-23T08:07:08Z</time>
      </trkpt>
      <trkpt lat="43.40697" lon="5.92222">
        <ele>301.51</ele>
        <time>2019-06-23T08:07:09Z</time>
      </trkpt>
      <trkpt lat="43.40699" lon="5.92223">
        <ele>301.51</ele>
        <time>2019-06-23T08:07:10Z</time>
      </trkpt>
      <trkpt lat="43.40701" lon="5.92222">
        <ele>301.51</ele>
        <time>2019-06-23T08:07:11Z</time>
      </trkpt>
      <trkpt lat="43.40703" lon="5.92223">
        <ele>301.51</ele>
        <time>2019-06-23T08:07:12Z</time>
      </trkpt>
      <trkpt lat="43.40705" lon="5.92224">
        <ele>301.51</ele>
        <time>2019-06-23T08:07:13Z</time>
      </trkpt>
      <trkpt lat="43.40736" lon="5.92238">
        <ele>301.51</ele>
        <time>2019-06-23T08:07:27Z</time>
      </trkpt>
      <trkpt lat="43.40738" lon="5.92237">
        <ele>301.51</ele>
        <time>2019-06-23T08:07:43Z</time>
      </trkpt>
      <trkpt lat="43.40738" lon="5.92237">
        <ele>301.51</ele>
        <time>2019-06-23T08:08:08Z</time>
      </trkpt>
      <trkpt lat="43.40737" lon="5.92237">
        <ele>301.51</ele>
        <time>2019-06-23T08:08:11Z</time>
      </trkpt>
      <trkpt lat="43.40738" lon="5.92246">
        <ele>301.51</ele>
        <time>2019-06-23T08:08:15Z</time>
      </trkpt>
      <trkpt lat="43.40746" lon="5.9227">
        <ele>301.51</ele>
        <time>2019-06-23T08:08:32Z</time>
      </trkpt>
      <trkpt lat="43.40758" lon="5.92293">
        <ele>301.51</ele>
        <time>2019-06-23T08:08:47Z</time>
      </trkpt>
      <trkpt lat="43.40759" lon="5.92298">
        <ele>301.51</ele>
        <time>2019-06-23T08:09:07Z</time>
      </trkpt>
      <trkpt lat="43.40767" lon="5.92304">
        <ele>302.47</ele>
        <time>2019-06-23T08:09:16Z</time>
      </trkpt>
      <trkpt lat="43.40784" lon="5.92298">
        <ele>302.47</ele>
        <time>2019-06-23T08:09:22Z</time>
      </trkpt>
      <trkpt lat="43.40801" lon="5.92305">
        <ele>301.51</ele>
        <time>2019-06-23T08:09:35Z</time>
      </trkpt>
      <trkpt lat="43.40808" lon="5.92317">
        <ele>301.51</ele>
        <time>2019-06-23T08:09:39Z</time>
      </trkpt>
      <trkpt lat="43.40799" lon="5.92351">
        <ele>301.03</ele>
        <time>2019-06-23T08:09:57Z</time>
      </trkpt>
      <trkpt lat="43.40797" lon="5.92357">
        <ele>301.03</ele>
        <time>2019-06-23T08:09:59Z</time>
      </trkpt>
      <trkpt lat="43.40795" lon="5.92393">
        <ele>301.03</ele>
        <time>2019-06-23T08:10:12Z</time>
      </trkpt>
      <trkpt lat="43.40794" lon="5.92403">
        <ele>301.03</ele>
        <time>2019-06-23T08:10:22Z</time>
      </trkpt>
      <trkpt lat="43.40793" lon="5.92408">
        <ele>301.03</ele>
        <time>2019-06-23T08:10:27Z</time>
      </trkpt>
      <trkpt lat="43.40795" lon="5.92417">
        <ele>301.03</ele>
        <time>2019-06-23T08:10:31Z</time>
      </trkpt>
      <trkpt lat="43.40798" lon="5.92445">
        <ele>301.03</ele>
        <time>2019-06-23T08:10:38Z</time>
      </trkpt>
      <trkpt lat="43.408" lon="5.92449">
        <ele>301.03</ele>
        <time>2019-06-23T08:10:39Z</time>
      </trkpt>
      <trkpt lat="43.40801" lon="5.92452">
        <ele>301.03</ele>
        <time>2019-06-23T08:10:40Z</time>
      </trkpt>
      <trkpt lat="43.40803" lon="5.92455">
        <ele>302.47</ele>
        <time>2019-06-23T08:10:41Z</time>
      </trkpt>
      <trkpt lat="43.40804" lon="5.92457">
        <ele>302.47</ele>
        <time>2019-06-23T08:10:42Z</time>
      </trkpt>
      <trkpt lat="43.40837" lon="5.92489">
        <ele>303.43</ele>
        <time>2019-06-23T08:10:56Z</time>
      </trkpt>
      <trkpt lat="43.4085" lon="5.92493">
        <ele>303.91</ele>
        <time>2019-06-23T08:11:02Z</time>
      </trkpt>
      <trkpt lat="43.40852" lon="5.92495">
        <ele>303.91</ele>
        <time>2019-06-23T08:11:03Z</time>
      </trkpt>
      <trkpt lat="43.40886" lon="5.92512">
        <ele>305.36</ele>
        <time>2019-06-23T08:11:17Z</time>
      </trkpt>
      <trkpt lat="43.40935" lon="5.92529">
        <ele>307.76</ele>
        <time>2019-06-23T08:11:35Z</time>
      </trkpt>
      <trkpt lat="43.40938" lon="5.92531">
        <ele>307.76</ele>
        <time>2019-06-23T08:11:36Z</time>
      </trkpt>
      <trkpt lat="43.4094" lon="5.92532">
        <ele>307.76</ele>
        <time>2019-06-23T08:11:37Z</time>
      </trkpt>
      <trkpt lat="43.40942" lon="5.92534">
        <ele>307.76</ele>
        <time>2019-06-23T08:11:38Z</time>
      </trkpt>
      <trkpt lat="43.40944" lon="5.92535">
        <ele>307.76</ele>
        <time>2019-06-23T08:11:39Z</time>
      </trkpt>
      <trkpt lat="43.40945" lon="5.92536">
        <ele>307.76</ele>
        <time>2019-06-23T08:11:40Z</time>
      </trkpt>
      <trkpt lat="43.40948" lon="5.9254">
        <ele>307.76</ele>
        <time>2019-06-23T08:11:41Z</time>
      </trkpt>
      <trkpt lat="43.40949" lon="5.92552">
        <ele>308.72</ele>
        <time>2019-06-23T08:11:43Z</time>
      </trkpt>
      <trkpt lat="43.40952" lon="5.92559">
        <ele>308.72</ele>
        <time>2019-06-23T08:11:45Z</time>
      </trkpt>
      <trkpt lat="43.40956" lon="5.92564">
        <ele>308.72</ele>
        <time>2019-06-23T08:11:46Z</time>
      </trkpt>
      <trkpt lat="43.40959" lon="5.92567">
        <ele>308.72</ele>
        <time>2019-06-23T08:11:47Z</time>
      </trkpt>
      <trkpt lat="43.40963" lon="5.9257">
        <ele>308.72</ele>
        <time>2019-06-23T08:11:48Z</time>
      </trkpt>
      <trkpt lat="43.41005" lon="5.926">
        <ele>310.16</ele>
        <time>2019-06-23T08:12:02Z</time>
      </trkpt>
      <trkpt lat="43.41039" lon="5.92625">
        <ele>311.6</ele>
        <time>2019-06-23T08:12:12Z</time>
      </trkpt>
      <trkpt lat="43.41044" lon="5.92627">
        <ele>311.6</ele>
        <time>2019-06-23T08:12:13Z</time>
      </trkpt>
      <trkpt lat="43.41109" lon="5.92635">
        <ele>314.49</ele>
        <time>2019-06-23T08:12:29Z</time>
      </trkpt>
      <trkpt lat="43.41149" lon="5.92615">
        <ele>317.37</ele>
        <time>2019-06-23T08:12:45Z</time>
      </trkpt>
      <trkpt lat="43.41176" lon="5.92586">
        <ele>320.26</ele>
        <time>2019-06-23T08:12:57Z</time>
      </trkpt>
      <trkpt lat="43.41206" lon="5.9254">
        <ele>323.14</ele>
        <time>2019-06-23T08:13:12Z</time>
      </trkpt>
      <trkpt lat="43.41238" lon="5.92483">
        <ele>325.54</ele>
        <time>2019-06-23T08:13:28Z</time>
      </trkpt>
      <trkpt lat="43.41254" lon="5.92413">
        <ele>327.95</ele>
        <time>2019-06-23T08:13:45Z</time>
      </trkpt>
      <trkpt lat="43.41256" lon="5.9235">
        <ele>330.83</ele>
        <time>2019-06-23T08:14:01Z</time>
      </trkpt>
      <trkpt lat="43.41255" lon="5.92286">
        <ele>330.35</ele>
        <time>2019-06-23T08:14:17Z</time>
      </trkpt>
      <trkpt lat="43.41255" lon="5.92228">
        <ele>329.39</ele>
        <time>2019-06-23T08:14:27Z</time>
      </trkpt>
      <trkpt lat="43.41255" lon="5.92213">
        <ele>329.39</ele>
        <time>2019-06-23T08:14:29Z</time>
      </trkpt>
      <trkpt lat="43.41255" lon="5.92208">
        <ele>329.39</ele>
        <time>2019-06-23T08:14:30Z</time>
      </trkpt>
      <trkpt lat="43.41249" lon="5.92171">
        <ele>328.43</ele>
        <time>2019-06-23T08:14:36Z</time>
      </trkpt>
      <trkpt lat="43.41238" lon="5.92127">
        <ele>324.1</ele>
        <time>2019-06-23T08:14:42Z</time>
      </trkpt>
      <trkpt lat="43.41236" lon="5.9212">
        <ele>323.14</ele>
        <time>2019-06-23T08:14:43Z</time>
      </trkpt>
      <trkpt lat="43.4123" lon="5.92106">
        <ele>321.7</ele>
        <time>2019-06-23T08:14:45Z</time>
      </trkpt>
      <trkpt lat="43.41227" lon="5.92099">
        <ele>321.22</ele>
        <time>2019-06-23T08:14:46Z</time>
      </trkpt>
      <trkpt lat="43.41224" lon="5.92092">
        <ele>320.26</ele>
        <time>2019-06-23T08:14:47Z</time>
      </trkpt>
      <trkpt lat="43.41221" lon="5.92086">
        <ele>320.26</ele>
        <time>2019-06-23T08:14:48Z</time>
      </trkpt>
      <trkpt lat="43.41217" lon="5.92082">
        <ele>319.3</ele>
        <time>2019-06-23T08:14:49Z</time>
      </trkpt>
      <trkpt lat="43.41213" lon="5.92079">
        <ele>318.81</ele>
        <time>2019-06-23T08:14:50Z</time>
      </trkpt>
      <trkpt lat="43.4121" lon="5.92076">
        <ele>318.33</ele>
        <time>2019-06-23T08:14:51Z</time>
      </trkpt>
      <trkpt lat="43.41194" lon="5.92061">
        <ele>315.45</ele>
        <time>2019-06-23T08:14:59Z</time>
      </trkpt>
      <trkpt lat="43.41194" lon="5.92059">
        <ele>314.97</ele>
        <time>2019-06-23T08:15:00Z</time>
      </trkpt>
      <trkpt lat="43.41195" lon="5.92057">
        <ele>315.45</ele>
        <time>2019-06-23T08:15:01Z</time>
      </trkpt>
      <trkpt lat="43.41196" lon="5.92055">
        <ele>315.45</ele>
        <time>2019-06-23T08:15:02Z</time>
      </trkpt>
      <trkpt lat="43.41216" lon="5.92039">
        <ele>315.45</ele>
        <time>2019-06-23T08:15:09Z</time>
      </trkpt>
      <trkpt lat="43.41269" lon="5.91983">
        <ele>316.89</ele>
        <time>2019-06-23T08:15:27Z</time>
      </trkpt>
      <trkpt lat="43.41309" lon="5.91941">
        <ele>317.37</ele>
        <time>2019-06-23T08:15:42Z</time>
      </trkpt>
      <trkpt lat="43.41368" lon="5.91885">
        <ele>318.81</ele>
        <time>2019-06-23T08:16:00Z</time>
      </trkpt>
      <trkpt lat="43.41433" lon="5.91821">
        <ele>320.26</ele>
        <time>2019-06-23T08:16:20Z</time>
      </trkpt>
      <trkpt lat="43.41476" lon="5.91782">
        <ele>321.22</ele>
        <time>2019-06-23T08:16:33Z</time>
      </trkpt>
      <trkpt lat="43.41534" lon="5.91718">
        <ele>321.7</ele>
        <time>2019-06-23T08:16:52Z</time>
      </trkpt>
      <trkpt lat="43.41575" lon="5.91646">
        <ele>323.14</ele>
        <time>2019-06-23T08:17:09Z</time>
      </trkpt>
      <trkpt lat="43.41614" lon="5.91571">
        <ele>324.1</ele>
        <time>2019-06-23T08:17:26Z</time>
      </trkpt>
      <trkpt lat="43.41655" lon="5.91491">
        <ele>324.58</ele>
        <time>2019-06-23T08:17:44Z</time>
      </trkpt>
      <trkpt lat="43.41697" lon="5.91407">
        <ele>325.06</ele>
        <time>2019-06-23T08:18:03Z</time>
      </trkpt>
      <trkpt lat="43.41736" lon="5.91327">
        <ele>325.06</ele>
        <time>2019-06-23T08:18:20Z</time>
      </trkpt>
      <trkpt lat="43.41786" lon="5.91227">
        <ele>325.06</ele>
        <time>2019-06-23T08:18:41Z</time>
      </trkpt>
      <trkpt lat="43.4183" lon="5.91138">
        <ele>325.54</ele>
        <time>2019-06-23T08:19:00Z</time>
      </trkpt>
      <trkpt lat="43.41888" lon="5.9102">
        <ele>325.06</ele>
        <time>2019-06-23T08:19:23Z</time>
      </trkpt>
      <trkpt lat="43.41946" lon="5.90903">
        <ele>325.54</ele>
        <time>2019-06-23T08:19:44Z</time>
      </trkpt>
      <trkpt lat="43.41976" lon="5.90828">
        <ele>326.02</ele>
        <time>2019-06-23T08:20:00Z</time>
      </trkpt>
      <trkpt lat="43.41962" lon="5.90806">
        <ele>325.54</ele>
        <time>2019-06-23T08:20:09Z</time>
      </trkpt>
      <trkpt lat="43.41959" lon="5.90806">
        <ele>325.54</ele>
        <time>2019-06-23T08:20:10Z</time>
      </trkpt>
      <trkpt lat="43.41956" lon="5.90809">
        <ele>325.54</ele>
        <time>2019-06-23T08:20:11Z</time>
      </trkpt>
      <trkpt lat="43.41953" lon="5.90813">
        <ele>325.54</ele>
        <time>2019-06-23T08:20:12Z</time>
      </trkpt>
      <trkpt lat="43.41951" lon="5.90818">
        <ele>325.54</ele>
        <time>2019-06-23T08:20:13Z</time>
      </trkpt>
      <trkpt lat="43.41948" lon="5.90824">
        <ele>325.54</ele>
        <time>2019-06-23T08:20:14Z</time>
      </trkpt>
      <trkpt lat="43.41944" lon="5.90835">
        <ele>324.1</ele>
        <time>2019-06-23T08:20:16Z</time>
      </trkpt>
      <trkpt lat="43.41939" lon="5.90842">
        <ele>323.14</ele>
        <time>2019-06-23T08:20:18Z</time>
      </trkpt>
      <trkpt lat="43.41936" lon="5.90843">
        <ele>322.66</ele>
        <time>2019-06-23T08:20:19Z</time>
      </trkpt>
      <trkpt lat="43.41933" lon="5.90842">
        <ele>322.66</ele>
        <time>2019-06-23T08:20:20Z</time>
      </trkpt>
      <trkpt lat="43.41933" lon="5.90839">
        <ele>322.66</ele>
        <time>2019-06-23T08:20:21Z</time>
      </trkpt>
      <trkpt lat="43.41934" lon="5.90835">
        <ele>322.66</ele>
        <time>2019-06-23T08:20:22Z</time>
      </trkpt>
      <trkpt lat="43.41936" lon="5.9083">
        <ele>322.66</ele>
        <time>2019-06-23T08:20:23Z</time>
      </trkpt>
      <trkpt lat="43.41938" lon="5.90826">
        <ele>322.66</ele>
        <time>2019-06-23T08:20:24Z</time>
      </trkpt>
      <trkpt lat="43.41941" lon="5.90815">
        <ele>322.66</ele>
        <time>2019-06-23T08:20:26Z</time>
      </trkpt>
      <trkpt lat="43.41941" lon="5.90809">
        <ele>322.66</ele>
        <time>2019-06-23T08:20:27Z</time>
      </trkpt>
      <trkpt lat="43.41941" lon="5.90804">
        <ele>322.18</ele>
        <time>2019-06-23T08:20:28Z</time>
      </trkpt>
      <trkpt lat="43.41936" lon="5.90775">
        <ele>321.7</ele>
        <time>2019-06-23T08:20:34Z</time>
      </trkpt>
      <trkpt lat="43.41939" lon="5.90771">
        <ele>321.7</ele>
        <time>2019-06-23T08:20:35Z</time>
      </trkpt>
      <trkpt lat="43.41942" lon="5.90768">
        <ele>321.7</ele>
        <time>2019-06-23T08:20:36Z</time>
      </trkpt>
      <trkpt lat="43.41992" lon="5.90729">
        <ele>321.7</ele>
        <time>2019-06-23T08:20:52Z</time>
      </trkpt>
      <trkpt lat="43.42018" lon="5.90684">
        <ele>320.74</ele>
        <time>2019-06-23T08:21:05Z</time>
      </trkpt>
      <trkpt lat="43.42047" lon="5.90628">
        <ele>320.74</ele>
        <time>2019-06-23T08:21:18Z</time>
      </trkpt>
      <trkpt lat="43.42071" lon="5.90573">
        <ele>320.74</ele>
        <time>2019-06-23T08:21:33Z</time>
      </trkpt>
      <trkpt lat="43.4207" lon="5.90511">
        <ele>320.74</ele>
        <time>2019-06-23T08:21:48Z</time>
      </trkpt>
      <trkpt lat="43.42071" lon="5.90493">
        <ele>320.74</ele>
        <time>2019-06-23T08:21:58Z</time>
      </trkpt>
      <trkpt lat="43.42071" lon="5.90491">
        <ele>320.74</ele>
        <time>2019-06-23T08:21:59Z</time>
      </trkpt>
      <trkpt lat="43.42071" lon="5.90489">
        <ele>320.74</ele>
        <time>2019-06-23T08:22:00Z</time>
      </trkpt>
      <trkpt lat="43.42071" lon="5.90486">
        <ele>322.18</ele>
        <time>2019-06-23T08:22:01Z</time>
      </trkpt>
      <trkpt lat="43.42071" lon="5.90482">
        <ele>322.18</ele>
        <time>2019-06-23T08:22:02Z</time>
      </trkpt>
      <trkpt lat="43.42071" lon="5.90479">
        <ele>322.18</ele>
        <time>2019-06-23T08:22:03Z</time>
      </trkpt>
      <trkpt lat="43.42071" lon="5.90475">
        <ele>322.18</ele>
        <time>2019-06-23T08:22:04Z</time>
      </trkpt>
      <trkpt lat="43.42071" lon="5.90471">
        <ele>322.18</ele>
        <time>2019-06-23T08:22:05Z</time>
      </trkpt>
      <trkpt lat="43.42071" lon="5.90467">
        <ele>322.18</ele>
        <time>2019-06-23T08:22:06Z</time>
      </trkpt>
      <trkpt lat="43.42071" lon="5.90464">
        <ele>322.66</ele>
        <time>2019-06-23T08:22:07Z</time>
      </trkpt>
      <trkpt lat="43.42071" lon="5.90461">
        <ele>322.66</ele>
        <time>2019-06-23T08:22:08Z</time>
      </trkpt>
      <trkpt lat="43.42072" lon="5.90459">
        <ele>322.66</ele>
        <time>2019-06-23T08:22:09Z</time>
      </trkpt>
      <trkpt lat="43.42073" lon="5.9045">
        <ele>323.14</ele>
        <time>2019-06-23T08:22:18Z</time>
      </trkpt>
      <trkpt lat="43.42072" lon="5.90453">
        <ele>323.62</ele>
        <time>2019-06-23T08:22:35Z</time>
      </trkpt>
      <trkpt lat="43.42071" lon="5.90455">
        <ele>323.14</ele>
        <time>2019-06-23T08:22:58Z</time>
      </trkpt>
      <trkpt lat="43.42067" lon="5.90453">
        <ele>323.14</ele>
        <time>2019-06-23T08:23:30Z</time>
      </trkpt>
      <trkpt lat="43.42066" lon="5.90452">
        <ele>322.66</ele>
        <time>2019-06-23T08:23:57Z</time>
      </trkpt>
      <trkpt lat="43.42068" lon="5.90455">
        <ele>321.7</ele>
        <time>2019-06-23T08:24:16Z</time>
      </trkpt>
      <trkpt lat="43.42068" lon="5.90457">
        <ele>321.7</ele>
        <time>2019-06-23T08:24:17Z</time>
      </trkpt>
      <trkpt lat="43.42068" lon="5.9046">
        <ele>321.7</ele>
        <time>2019-06-23T08:24:18Z</time>
      </trkpt>
      <trkpt lat="43.42068" lon="5.90464">
        <ele>321.7</ele>
        <time>2019-06-23T08:24:19Z</time>
      </trkpt>
      <trkpt lat="43.42068" lon="5.90468">
        <ele>321.7</ele>
        <time>2019-06-23T08:24:20Z</time>
      </trkpt>
      <trkpt lat="43.42068" lon="5.90474">
        <ele>321.7</ele>
        <time>2019-06-23T08:24:21Z</time>
      </trkpt>
      <trkpt lat="43.42068" lon="5.90479">
        <ele>321.7</ele>
        <time>2019-06-23T08:24:22Z</time>
      </trkpt>
      <trkpt lat="43.42073" lon="5.90559">
        <ele>319.3</ele>
        <time>2019-06-23T08:24:36Z</time>
      </trkpt>
      <trkpt lat="43.42074" lon="5.90562">
        <ele>319.3</ele>
        <time>2019-06-23T08:24:37Z</time>
      </trkpt>
      <trkpt lat="43.42074" lon="5.90564">
        <ele>319.3</ele>
        <time>2019-06-23T08:24:38Z</time>
      </trkpt>
      <trkpt lat="43.42076" lon="5.90565">
        <ele>319.3</ele>
        <time>2019-06-23T08:24:39Z</time>
      </trkpt>
      <trkpt lat="43.42077" lon="5.90565">
        <ele>319.3</ele>
        <time>2019-06-23T08:24:40Z</time>
      </trkpt>
      <trkpt lat="43.42078" lon="5.90564">
        <ele>319.3</ele>
        <time>2019-06-23T08:24:41Z</time>
      </trkpt>
      <trkpt lat="43.4208" lon="5.90563">
        <ele>319.3</ele>
        <time>2019-06-23T08:24:42Z</time>
      </trkpt>
      <trkpt lat="43.42081" lon="5.9056">
        <ele>319.3</ele>
        <time>2019-06-23T08:24:43Z</time>
      </trkpt>
      <trkpt lat="43.42106" lon="5.90502">
        <ele>319.3</ele>
        <time>2019-06-23T08:24:57Z</time>
      </trkpt>
      <trkpt lat="43.42107" lon="5.90492">
        <ele>319.3</ele>
        <time>2019-06-23T08:24:59Z</time>
      </trkpt>
      <trkpt lat="43.42105" lon="5.90408">
        <ele>320.74</ele>
        <time>2019-06-23T08:25:16Z</time>
      </trkpt>
      <trkpt lat="43.42103" lon="5.90335">
        <ele>322.18</ele>
        <time>2019-06-23T08:25:34Z</time>
      </trkpt>
      <trkpt lat="43.42107" lon="5.90256">
        <ele>321.22</ele>
        <time>2019-06-23T08:25:49Z</time>
      </trkpt>
      <trkpt lat="43.42136" lon="5.90136">
        <ele>319.3</ele>
        <time>2019-06-23T08:26:06Z</time>
      </trkpt>
      <trkpt lat="43.42159" lon="5.90051">
        <ele>319.3</ele>
        <time>2019-06-23T08:26:20Z</time>
      </trkpt>
      <trkpt lat="43.42159" lon="5.90046">
        <ele>319.3</ele>
        <time>2019-06-23T08:26:21Z</time>
      </trkpt>
      <trkpt lat="43.4216" lon="5.9004">
        <ele>319.3</ele>
        <time>2019-06-23T08:26:22Z</time>
      </trkpt>
      <trkpt lat="43.4216" lon="5.90036">
        <ele>319.3</ele>
        <time>2019-06-23T08:26:23Z</time>
      </trkpt>
      <trkpt lat="43.42159" lon="5.90031">
        <ele>319.3</ele>
        <time>2019-06-23T08:26:24Z</time>
      </trkpt>
      <trkpt lat="43.42159" lon="5.90022">
        <ele>320.74</ele>
        <time>2019-06-23T08:26:26Z</time>
      </trkpt>
      <trkpt lat="43.42152" lon="5.8994">
        <ele>321.22</ele>
        <time>2019-06-23T08:26:42Z</time>
      </trkpt>
      <trkpt lat="43.42142" lon="5.89881">
        <ele>319.78</ele>
        <time>2019-06-23T08:26:51Z</time>
      </trkpt>
      <trkpt lat="43.42118" lon="5.89785">
        <ele>318.33</ele>
        <time>2019-06-23T08:27:07Z</time>
      </trkpt>
      <trkpt lat="43.42093" lon="5.89668">
        <ele>317.37</ele>
        <time>2019-06-23T08:27:25Z</time>
      </trkpt>
      <trkpt lat="43.42066" lon="5.89547">
        <ele>315.45</ele>
        <time>2019-06-23T08:27:43Z</time>
      </trkpt>
      <trkpt lat="43.42066" lon="5.89526">
        <ele>314.97</ele>
        <time>2019-06-23T08:27:47Z</time>
      </trkpt>
      <trkpt lat="43.42069" lon="5.89522">
        <ele>314.97</ele>
        <time>2019-06-23T08:27:48Z</time>
      </trkpt>
      <trkpt lat="43.42073" lon="5.89519">
        <ele>314.97</ele>
        <time>2019-06-23T08:27:49Z</time>
      </trkpt>
      <trkpt lat="43.42077" lon="5.89518">
        <ele>314.97</ele>
        <time>2019-06-23T08:27:50Z</time>
      </trkpt>
      <trkpt lat="43.42081" lon="5.89516">
        <ele>314.49</ele>
        <time>2019-06-23T08:27:51Z</time>
      </trkpt>
      <trkpt lat="43.42154" lon="5.89499">
        <ele>313.05</ele>
        <time>2019-06-23T08:28:06Z</time>
      </trkpt>
      <trkpt lat="43.42172" lon="5.89494">
        <ele>312.57</ele>
        <time>2019-06-23T08:28:10Z</time>
      </trkpt>
      <trkpt lat="43.42205" lon="5.8949">
        <ele>312.57</ele>
        <time>2019-06-23T08:28:17Z</time>
      </trkpt>
      <trkpt lat="43.42255" lon="5.89467">
        <ele>311.6</ele>
        <time>2019-06-23T08:28:31Z</time>
      </trkpt>
      <trkpt lat="43.42263" lon="5.89443">
        <ele>310.64</ele>
        <time>2019-06-23T08:28:36Z</time>
      </trkpt>
      <trkpt lat="43.42265" lon="5.89438">
        <ele>310.64</ele>
        <time>2019-06-23T08:28:37Z</time>
      </trkpt>
      <trkpt lat="43.42268" lon="5.89434">
        <ele>310.64</ele>
        <time>2019-06-23T08:28:38Z</time>
      </trkpt>
      <trkpt lat="43.42271" lon="5.8943">
        <ele>310.16</ele>
        <time>2019-06-23T08:28:39Z</time>
      </trkpt>
      <trkpt lat="43.42275" lon="5.89427">
        <ele>310.16</ele>
        <time>2019-06-23T08:28:40Z</time>
      </trkpt>
      <trkpt lat="43.42279" lon="5.89424">
        <ele>310.16</ele>
        <time>2019-06-23T08:28:41Z</time>
      </trkpt>
      <trkpt lat="43.42307" lon="5.89409">
        <ele>309.2</ele>
        <time>2019-06-23T08:28:52Z</time>
      </trkpt>
      <trkpt lat="43.42308" lon="5.89405">
        <ele>309.2</ele>
        <time>2019-06-23T08:28:54Z</time>
      </trkpt>
      <trkpt lat="43.42311" lon="5.89398">
        <ele>309.2</ele>
        <time>2019-06-23T08:28:57Z</time>
      </trkpt>
      <trkpt lat="43.42313" lon="5.89396">
        <ele>309.2</ele>
        <time>2019-06-23T08:28:58Z</time>
      </trkpt>
      <trkpt lat="43.42315" lon="5.89394">
        <ele>309.2</ele>
        <time>2019-06-23T08:28:59Z</time>
      </trkpt>
      <trkpt lat="43.42319" lon="5.89392">
        <ele>309.2</ele>
        <time>2019-06-23T08:29:00Z</time>
      </trkpt>
      <trkpt lat="43.42322" lon="5.89389">
        <ele>309.2</ele>
        <time>2019-06-23T08:29:01Z</time>
      </trkpt>
      <trkpt lat="43.42334" lon="5.89377">
        <ele>310.64</ele>
        <time>2019-06-23T08:29:06Z</time>
      </trkpt>
      <trkpt lat="43.42346" lon="5.89327">
        <ele>312.57</ele>
        <time>2019-06-23T08:29:18Z</time>
      </trkpt>
      <trkpt lat="43.42358" lon="5.89252">
        <ele>314.01</ele>
        <time>2019-06-23T08:29:35Z</time>
      </trkpt>
      <trkpt lat="43.42368" lon="5.89201">
        <ele>316.41</ele>
        <time>2019-06-23T08:29:48Z</time>
      </trkpt>
      <trkpt lat="43.42377" lon="5.89161">
        <ele>316.41</ele>
        <time>2019-06-23T08:30:00Z</time>
      </trkpt>
      <trkpt lat="43.4239" lon="5.89104">
        <ele>317.85</ele>
        <time>2019-06-23T08:30:14Z</time>
      </trkpt>
      <trkpt lat="43.42406" lon="5.89039">
        <ele>318.81</ele>
        <time>2019-06-23T08:30:28Z</time>
      </trkpt>
      <trkpt lat="43.42414" lon="5.88979">
        <ele>321.22</ele>
        <time>2019-06-23T08:30:41Z</time>
      </trkpt>
      <trkpt lat="43.42416" lon="5.88917">
        <ele>322.66</ele>
        <time>2019-06-23T08:30:55Z</time>
      </trkpt>
      <trkpt lat="43.42415" lon="5.88843">
        <ele>325.06</ele>
        <time>2019-06-23T08:31:10Z</time>
      </trkpt>
      <trkpt lat="43.42417" lon="5.88825">
        <ele>325.06</ele>
        <time>2019-06-23T08:31:16Z</time>
      </trkpt>
      <trkpt lat="43.42432" lon="5.88807">
        <ele>325.06</ele>
        <time>2019-06-23T08:31:26Z</time>
      </trkpt>
      <trkpt lat="43.42469" lon="5.88785">
        <ele>327.95</ele>
        <time>2019-06-23T08:31:39Z</time>
      </trkpt>
      <trkpt lat="43.42474" lon="5.88783">
        <ele>328.43</ele>
        <time>2019-06-23T08:31:43Z</time>
      </trkpt>
      <trkpt lat="43.42476" lon="5.88771">
        <ele>328.91</ele>
        <time>2019-06-23T08:31:51Z</time>
      </trkpt>
      <trkpt lat="43.42478" lon="5.88743">
        <ele>328.91</ele>
        <time>2019-06-23T08:32:05Z</time>
      </trkpt>
      <trkpt lat="43.42482" lon="5.88722">
        <ele>327.95</ele>
        <time>2019-06-23T08:32:17Z</time>
      </trkpt>
      <trkpt lat="43.42484" lon="5.88722">
        <ele>327.95</ele>
        <time>2019-06-23T08:32:33Z</time>
      </trkpt>
      <trkpt lat="43.42486" lon="5.88725">
        <ele>327.95</ele>
        <time>2019-06-23T08:32:42Z</time>
      </trkpt>
      <trkpt lat="43.42496" lon="5.88714">
        <ele>328.91</ele>
        <time>2019-06-23T08:32:51Z</time>
      </trkpt>
      <trkpt lat="43.42501" lon="5.88708">
        <ele>328.91</ele>
        <time>2019-06-23T08:32:56Z</time>
      </trkpt>
      <trkpt lat="43.42522" lon="5.88699">
        <ele>330.35</ele>
        <time>2019-06-23T08:33:06Z</time>
      </trkpt>
      <trkpt lat="43.42528" lon="5.88695">
        <ele>330.83</ele>
        <time>2019-06-23T08:33:10Z</time>
      </trkpt>
      <trkpt lat="43.42562" lon="5.88694">
        <ele>331.31</ele>
        <time>2019-06-23T08:33:26Z</time>
      </trkpt>
      <trkpt lat="43.42585" lon="5.88708">
        <ele>331.31</ele>
        <time>2019-06-23T08:33:41Z</time>
      </trkpt>
      <trkpt lat="43.4258" lon="5.887">
        <ele>331.79</ele>
        <time>2019-06-23T08:33:48Z</time>
      </trkpt>
      <trkpt lat="43.42554" lon="5.887">
        <ele>331.79</ele>
        <time>2019-06-23T08:34:02Z</time>
      </trkpt>
      <trkpt lat="43.42552" lon="5.887">
        <ele>331.79</ele>
        <time>2019-06-23T08:34:05Z</time>
      </trkpt>
      <trkpt lat="43.42545" lon="5.88674">
        <ele>328.91</ele>
        <time>2019-06-23T08:34:18Z</time>
      </trkpt>
      <trkpt lat="43.42544" lon="5.88657">
        <ele>326.99</ele>
        <time>2019-06-23T08:34:29Z</time>
      </trkpt>
      <trkpt lat="43.42552" lon="5.88631">
        <ele>323.62</ele>
        <time>2019-06-23T08:34:41Z</time>
      </trkpt>
      <trkpt lat="43.42554" lon="5.88612">
        <ele>320.74</ele>
        <time>2019-06-23T08:34:49Z</time>
      </trkpt>
      <trkpt lat="43.42555" lon="5.88598">
        <ele>319.3</ele>
        <time>2019-06-23T08:34:53Z</time>
      </trkpt>
      <trkpt lat="43.4255" lon="5.88577">
        <ele>318.33</ele>
        <time>2019-06-23T08:34:57Z</time>
      </trkpt>
      <trkpt lat="43.42551" lon="5.8854">
        <ele>316.41</ele>
        <time>2019-06-23T08:35:01Z</time>
      </trkpt>
      <trkpt lat="43.42552" lon="5.8853">
        <ele>316.41</ele>
        <time>2019-06-23T08:35:02Z</time>
      </trkpt>
      <trkpt lat="43.4255" lon="5.8846">
        <ele>318.33</ele>
        <time>2019-06-23T08:35:13Z</time>
      </trkpt>
      <trkpt lat="43.42539" lon="5.88394">
        <ele>320.26</ele>
        <time>2019-06-23T08:35:28Z</time>
      </trkpt>
      <trkpt lat="43.42539" lon="5.88323">
        <ele>320.74</ele>
        <time>2019-06-23T08:35:43Z</time>
      </trkpt>
      <trkpt lat="43.42533" lon="5.88267">
        <ele>321.22</ele>
        <time>2019-06-23T08:35:54Z</time>
      </trkpt>
      <trkpt lat="43.42527" lon="5.88208">
        <ele>322.66</ele>
        <time>2019-06-23T08:36:08Z</time>
      </trkpt>
      <trkpt lat="43.42515" lon="5.88135">
        <ele>323.14</ele>
        <time>2019-06-23T08:36:25Z</time>
      </trkpt>
      <trkpt lat="43.42511" lon="5.88075">
        <ele>321.22</ele>
        <time>2019-06-23T08:36:40Z</time>
      </trkpt>
      <trkpt lat="43.42503" lon="5.88056">
        <ele>320.74</ele>
        <time>2019-06-23T08:36:45Z</time>
      </trkpt>
      <trkpt lat="43.42504" lon="5.88052">
        <ele>320.74</ele>
        <time>2019-06-23T08:36:46Z</time>
      </trkpt>
      <trkpt lat="43.42504" lon="5.88049">
        <ele>321.22</ele>
        <time>2019-06-23T08:36:47Z</time>
      </trkpt>
      <trkpt lat="43.42505" lon="5.88046">
        <ele>320.74</ele>
        <time>2019-06-23T08:36:48Z</time>
      </trkpt>
      <trkpt lat="43.42506" lon="5.88044">
        <ele>321.22</ele>
        <time>2019-06-23T08:36:49Z</time>
      </trkpt>
      <trkpt lat="43.42508" lon="5.88042">
        <ele>320.26</ele>
        <time>2019-06-23T08:36:50Z</time>
      </trkpt>
      <trkpt lat="43.42509" lon="5.8804">
        <ele>320.74</ele>
        <time>2019-06-23T08:36:51Z</time>
      </trkpt>
      <trkpt lat="43.42512" lon="5.88038">
        <ele>319.78</ele>
        <time>2019-06-23T08:36:52Z</time>
      </trkpt>
      <trkpt lat="43.42524" lon="5.88029">
        <ele>316.41</ele>
        <time>2019-06-23T08:36:57Z</time>
      </trkpt>
      <trkpt lat="43.4253" lon="5.88026">
        <ele>314.01</ele>
        <time>2019-06-23T08:36:59Z</time>
      </trkpt>
      <trkpt lat="43.42545" lon="5.88014">
        <ele>310.16</ele>
        <time>2019-06-23T08:37:04Z</time>
      </trkpt>
      <trkpt lat="43.42549" lon="5.88012">
        <ele>309.68</ele>
        <time>2019-06-23T08:37:06Z</time>
      </trkpt>
      <trkpt lat="43.42558" lon="5.8801">
        <ele>309.2</ele>
        <time>2019-06-23T08:37:11Z</time>
      </trkpt>
      <trkpt lat="43.4256" lon="5.88009">
        <ele>309.2</ele>
        <time>2019-06-23T08:37:12Z</time>
      </trkpt>
      <trkpt lat="43.42592" lon="5.87991">
        <ele>308.72</ele>
        <time>2019-06-23T08:37:22Z</time>
      </trkpt>
      <trkpt lat="43.42634" lon="5.87982">
        <ele>308.72</ele>
        <time>2019-06-23T08:37:34Z</time>
      </trkpt>
      <trkpt lat="43.42661" lon="5.87984">
        <ele>309.2</ele>
        <time>2019-06-23T08:37:41Z</time>
      </trkpt>
      <trkpt lat="43.42665" lon="5.87983">
        <ele>309.2</ele>
        <time>2019-06-23T08:37:42Z</time>
      </trkpt>
      <trkpt lat="43.42668" lon="5.87981">
        <ele>309.2</ele>
        <time>2019-06-23T08:37:43Z</time>
      </trkpt>
      <trkpt lat="43.42708" lon="5.87971">
        <ele>308.72</ele>
        <time>2019-06-23T08:37:56Z</time>
      </trkpt>
      <trkpt lat="43.42763" lon="5.8802">
        <ele>309.2</ele>
        <time>2019-06-23T08:38:09Z</time>
      </trkpt>
      <trkpt lat="43.42779" lon="5.88054">
        <ele>309.2</ele>
        <time>2019-06-23T08:38:21Z</time>
      </trkpt>
      <trkpt lat="43.4278" lon="5.88061">
        <ele>309.2</ele>
        <time>2019-06-23T08:38:36Z</time>
      </trkpt>
      <trkpt lat="43.4278" lon="5.88059">
        <ele>309.2</ele>
        <time>2019-06-23T08:38:37Z</time>
      </trkpt>
      <trkpt lat="43.42776" lon="5.88034">
        <ele>309.2</ele>
        <time>2019-06-23T08:38:43Z</time>
      </trkpt>
      <trkpt lat="43.42774" lon="5.88029">
        <ele>309.2</ele>
        <time>2019-06-23T08:38:44Z</time>
      </trkpt>
      <trkpt lat="43.42771" lon="5.88026">
        <ele>309.2</ele>
        <time>2019-06-23T08:38:45Z</time>
      </trkpt>
      <trkpt lat="43.42768" lon="5.88024">
        <ele>309.2</ele>
        <time>2019-06-23T08:38:46Z</time>
      </trkpt>
      <trkpt lat="43.42765" lon="5.88022">
        <ele>309.2</ele>
        <time>2019-06-23T08:38:47Z</time>
      </trkpt>
      <trkpt lat="43.42761" lon="5.88021">
        <ele>309.2</ele>
        <time>2019-06-23T08:38:48Z</time>
      </trkpt>
      <trkpt lat="43.42733" lon="5.88003">
        <ele>309.2</ele>
        <time>2019-06-23T08:38:59Z</time>
      </trkpt>
      <trkpt lat="43.42697" lon="5.88007">
        <ele>309.2</ele>
        <time>2019-06-23T08:39:12Z</time>
      </trkpt>
      <trkpt lat="43.42693" lon="5.88003">
        <ele>310.64</ele>
        <time>2019-06-23T08:39:14Z</time>
      </trkpt>
      <trkpt lat="43.42672" lon="5.87994">
        <ele>309.2</ele>
        <time>2019-06-23T08:39:22Z</time>
      </trkpt>
      <trkpt lat="43.42627" lon="5.88004">
        <ele>309.2</ele>
        <time>2019-06-23T08:39:35Z</time>
      </trkpt>
      <trkpt lat="43.42602" lon="5.87983">
        <ele>309.2</ele>
        <time>2019-06-23T08:39:47Z</time>
      </trkpt>
      <trkpt lat="43.42567" lon="5.87926">
        <ele>309.2</ele>
        <time>2019-06-23T08:40:02Z</time>
      </trkpt>
      <trkpt lat="43.42527" lon="5.87852">
        <ele>310.64</ele>
        <time>2019-06-23T08:40:16Z</time>
      </trkpt>
      <trkpt lat="43.42497" lon="5.87815">
        <ele>310.64</ele>
        <time>2019-06-23T08:40:24Z</time>
      </trkpt>
      <trkpt lat="43.42496" lon="5.87811">
        <ele>310.64</ele>
        <time>2019-06-23T08:40:25Z</time>
      </trkpt>
      <trkpt lat="43.42494" lon="5.87806">
        <ele>310.64</ele>
        <time>2019-06-23T08:40:26Z</time>
      </trkpt>
      <trkpt lat="43.42493" lon="5.87802">
        <ele>310.64</ele>
        <time>2019-06-23T08:40:27Z</time>
      </trkpt>
      <trkpt lat="43.42492" lon="5.87798">
        <ele>310.64</ele>
        <time>2019-06-23T08:40:28Z</time>
      </trkpt>
      <trkpt lat="43.42491" lon="5.87795">
        <ele>310.64</ele>
        <time>2019-06-23T08:40:29Z</time>
      </trkpt>
      <trkpt lat="43.42492" lon="5.8779">
        <ele>310.64</ele>
        <time>2019-06-23T08:40:30Z</time>
      </trkpt>
      <trkpt lat="43.42492" lon="5.87787">
        <ele>310.64</ele>
        <time>2019-06-23T08:40:31Z</time>
      </trkpt>
      <trkpt lat="43.42498" lon="5.87725">
        <ele>311.12</ele>
        <time>2019-06-23T08:40:44Z</time>
      </trkpt>
      <trkpt lat="43.42504" lon="5.87698">
        <ele>312.09</ele>
        <time>2019-06-23T08:40:49Z</time>
      </trkpt>
      <trkpt lat="43.42504" lon="5.87691">
        <ele>312.09</ele>
        <time>2019-06-23T08:40:50Z</time>
      </trkpt>
      <trkpt lat="43.42505" lon="5.87685">
        <ele>313.05</ele>
        <time>2019-06-23T08:40:51Z</time>
      </trkpt>
      <trkpt lat="43.42506" lon="5.876">
        <ele>315.93</ele>
        <time>2019-06-23T08:41:06Z</time>
      </trkpt>
      <trkpt lat="43.425" lon="5.87559">
        <ele>316.41</ele>
        <time>2019-06-23T08:41:16Z</time>
      </trkpt>
      <trkpt lat="43.425" lon="5.87555">
        <ele>316.41</ele>
        <time>2019-06-23T08:41:17Z</time>
      </trkpt>
      <trkpt lat="43.425" lon="5.87552">
        <ele>316.41</ele>
        <time>2019-06-23T08:41:18Z</time>
      </trkpt>
      <trkpt lat="43.425" lon="5.87549">
        <ele>316.41</ele>
        <time>2019-06-23T08:41:19Z</time>
      </trkpt>
      <trkpt lat="43.42501" lon="5.87545">
        <ele>316.41</ele>
        <time>2019-06-23T08:41:20Z</time>
      </trkpt>
      <trkpt lat="43.42502" lon="5.87542">
        <ele>316.41</ele>
        <time>2019-06-23T08:41:21Z</time>
      </trkpt>
      <trkpt lat="43.42518" lon="5.875">
        <ele>316.41</ele>
        <time>2019-06-23T08:41:32Z</time>
      </trkpt>
      <trkpt lat="43.4252" lon="5.87498">
        <ele>316.41</ele>
        <time>2019-06-23T08:41:33Z</time>
      </trkpt>
      <trkpt lat="43.42522" lon="5.87498">
        <ele>316.41</ele>
        <time>2019-06-23T08:41:34Z</time>
      </trkpt>
      <trkpt lat="43.42525" lon="5.87497">
        <ele>316.41</ele>
        <time>2019-06-23T08:41:35Z</time>
      </trkpt>
      <trkpt lat="43.42538" lon="5.87497">
        <ele>316.41</ele>
        <time>2019-06-23T08:41:38Z</time>
      </trkpt>
      <trkpt lat="43.42542" lon="5.87493">
        <ele>314.97</ele>
        <time>2019-06-23T08:41:39Z</time>
      </trkpt>
      <trkpt lat="43.42545" lon="5.87489">
        <ele>314.97</ele>
        <time>2019-06-23T08:41:40Z</time>
      </trkpt>
      <trkpt lat="43.42546" lon="5.87484">
        <ele>314.49</ele>
        <time>2019-06-23T08:41:41Z</time>
      </trkpt>
      <trkpt lat="43.42546" lon="5.87478">
        <ele>314.49</ele>
        <time>2019-06-23T08:41:42Z</time>
      </trkpt>
      <trkpt lat="43.42546" lon="5.8747">
        <ele>314.49</ele>
        <time>2019-06-23T08:41:43Z</time>
      </trkpt>
      <trkpt lat="43.42546" lon="5.87463">
        <ele>313.53</ele>
        <time>2019-06-23T08:41:44Z</time>
      </trkpt>
      <trkpt lat="43.42545" lon="5.87456">
        <ele>314.01</ele>
        <time>2019-06-23T08:41:45Z</time>
      </trkpt>
      <trkpt lat="43.42544" lon="5.87449">
        <ele>313.53</ele>
        <time>2019-06-23T08:41:46Z</time>
      </trkpt>
      <trkpt lat="43.42542" lon="5.87443">
        <ele>314.01</ele>
        <time>2019-06-23T08:41:47Z</time>
      </trkpt>
      <trkpt lat="43.42541" lon="5.87438">
        <ele>314.01</ele>
        <time>2019-06-23T08:41:48Z</time>
      </trkpt>
      <trkpt lat="43.42539" lon="5.87431">
        <ele>314.01</ele>
        <time>2019-06-23T08:41:49Z</time>
      </trkpt>
      <trkpt lat="43.42536" lon="5.87378">
        <ele>315.45</ele>
        <time>2019-06-23T08:41:59Z</time>
      </trkpt>
      <trkpt lat="43.42497" lon="5.87322">
        <ele>316.41</ele>
        <time>2019-06-23T08:42:15Z</time>
      </trkpt>
      <trkpt lat="43.42439" lon="5.87284">
        <ele>315.45</ele>
        <time>2019-06-23T08:42:30Z</time>
      </trkpt>
      <trkpt lat="43.42368" lon="5.87278">
        <ele>315.45</ele>
        <time>2019-06-23T08:42:45Z</time>
      </trkpt>
      <trkpt lat="43.42322" lon="5.87287">
        <ele>316.89</ele>
        <time>2019-06-23T08:42:55Z</time>
      </trkpt>
      <trkpt lat="43.42265" lon="5.8731">
        <ele>318.81</ele>
        <time>2019-06-23T08:43:10Z</time>
      </trkpt>
      <trkpt lat="43.42228" lon="5.87303">
        <ele>319.78</ele>
        <time>2019-06-23T08:43:23Z</time>
      </trkpt>
      <trkpt lat="43.42171" lon="5.87254">
        <ele>319.78</ele>
        <time>2019-06-23T08:43:41Z</time>
      </trkpt>
      <trkpt lat="43.4214" lon="5.8722">
        <ele>319.78</ele>
        <time>2019-06-23T08:43:52Z</time>
      </trkpt>
      <trkpt lat="43.42104" lon="5.87172">
        <ele>321.7</ele>
        <time>2019-06-23T08:44:06Z</time>
      </trkpt>
      <trkpt lat="43.421" lon="5.87129">
        <ele>321.7</ele>
        <time>2019-06-23T08:44:16Z</time>
      </trkpt>
      <trkpt lat="43.42096" lon="5.87124">
        <ele>319.78</ele>
        <time>2019-06-23T08:44:17Z</time>
      </trkpt>
      <trkpt lat="43.42092" lon="5.87119">
        <ele>319.78</ele>
        <time>2019-06-23T08:44:18Z</time>
      </trkpt>
      <trkpt lat="43.42087" lon="5.87115">
        <ele>319.78</ele>
        <time>2019-06-23T08:44:19Z</time>
      </trkpt>
      <trkpt lat="43.42083" lon="5.87111">
        <ele>319.3</ele>
        <time>2019-06-23T08:44:20Z</time>
      </trkpt>
      <trkpt lat="43.4208" lon="5.87107">
        <ele>319.3</ele>
        <time>2019-06-23T08:44:21Z</time>
      </trkpt>
      <trkpt lat="43.42075" lon="5.87093">
        <ele>318.81</ele>
        <time>2019-06-23T08:44:25Z</time>
      </trkpt>
      <trkpt lat="43.42076" lon="5.8709">
        <ele>318.81</ele>
        <time>2019-06-23T08:44:26Z</time>
      </trkpt>
      <trkpt lat="43.42084" lon="5.87037">
        <ele>318.33</ele>
        <time>2019-06-23T08:44:38Z</time>
      </trkpt>
      <trkpt lat="43.42118" lon="5.8701">
        <ele>317.85</ele>
        <time>2019-06-23T08:44:50Z</time>
      </trkpt>
      <trkpt lat="43.42136" lon="5.86997">
        <ele>317.85</ele>
        <time>2019-06-23T08:44:55Z</time>
      </trkpt>
      <trkpt lat="43.42189" lon="5.86939">
        <ele>317.85</ele>
        <time>2019-06-23T08:45:11Z</time>
      </trkpt>
      <trkpt lat="43.42206" lon="5.86923">
        <ele>318.81</ele>
        <time>2019-06-23T08:45:16Z</time>
      </trkpt>
      <trkpt lat="43.42265" lon="5.86866">
        <ele>320.74</ele>
        <time>2019-06-23T08:45:35Z</time>
      </trkpt>
      <trkpt lat="43.42311" lon="5.86816">
        <ele>322.66</ele>
        <time>2019-06-23T08:45:52Z</time>
      </trkpt>
      <trkpt lat="43.42355" lon="5.86781">
        <ele>325.54</ele>
        <time>2019-06-23T08:46:10Z</time>
      </trkpt>
      <trkpt lat="43.42392" lon="5.86733">
        <ele>328.43</ele>
        <time>2019-06-23T08:46:25Z</time>
      </trkpt>
      <trkpt lat="43.42424" lon="5.86679">
        <ele>331.79</ele>
        <time>2019-06-23T08:46:41Z</time>
      </trkpt>
      <trkpt lat="43.42464" lon="5.86599">
        <ele>332.75</ele>
        <time>2019-06-23T08:47:02Z</time>
      </trkpt>
      <trkpt lat="43.42501" lon="5.86571">
        <ele>334.68</ele>
        <time>2019-06-23T08:47:15Z</time>
      </trkpt>
      <trkpt lat="43.4256" lon="5.86555">
        <ele>337.56</ele>
        <time>2019-06-23T08:47:34Z</time>
      </trkpt>
      <trkpt lat="43.42614" lon="5.86541">
        <ele>340.44</ele>
        <time>2019-06-23T08:47:52Z</time>
      </trkpt>
      <trkpt lat="43.42668" lon="5.86529">
        <ele>342.85</ele>
        <time>2019-06-23T08:48:10Z</time>
      </trkpt>
      <trkpt lat="43.42715" lon="5.86517">
        <ele>344.29</ele>
        <time>2019-06-23T08:48:25Z</time>
      </trkpt>
      <trkpt lat="43.42759" lon="5.86505">
        <ele>344.29</ele>
        <time>2019-06-23T08:48:39Z</time>
      </trkpt>
      <trkpt lat="43.42818" lon="5.86488">
        <ele>342.85</ele>
        <time>2019-06-23T08:48:54Z</time>
      </trkpt>
      <trkpt lat="43.42876" lon="5.86508">
        <ele>344.29</ele>
        <time>2019-06-23T08:49:08Z</time>
      </trkpt>
      <trkpt lat="43.4295" lon="5.86544">
        <ele>346.21</ele>
        <time>2019-06-23T08:49:25Z</time>
      </trkpt>
      <trkpt lat="43.42986" lon="5.86542">
        <ele>348.13</ele>
        <time>2019-06-23T08:49:38Z</time>
      </trkpt>
      <trkpt lat="43.43031" lon="5.86535">
        <ele>351.5</ele>
        <time>2019-06-23T08:49:53Z</time>
      </trkpt>
      <trkpt lat="43.43091" lon="5.86543">
        <ele>351.5</ele>
        <time>2019-06-23T08:50:07Z</time>
      </trkpt>
      <trkpt lat="43.43163" lon="5.86532">
        <ele>352.46</ele>
        <time>2019-06-23T08:50:23Z</time>
      </trkpt>
      <trkpt lat="43.43242" lon="5.86488">
        <ele>352.94</ele>
        <time>2019-06-23T08:50:41Z</time>
      </trkpt>
      <trkpt lat="43.43264" lon="5.86472">
        <ele>352.94</ele>
        <time>2019-06-23T08:50:47Z</time>
      </trkpt>
      <trkpt lat="43.43268" lon="5.8647">
        <ele>352.94</ele>
        <time>2019-06-23T08:50:48Z</time>
      </trkpt>
      <trkpt lat="43.43341" lon="5.86449">
        <ele>352.94</ele>
        <time>2019-06-23T08:51:03Z</time>
      </trkpt>
      <trkpt lat="43.43421" lon="5.86421">
        <ele>351.5</ele>
        <time>2019-06-23T08:51:19Z</time>
      </trkpt>
      <trkpt lat="43.43489" lon="5.86371">
        <ele>352.46</ele>
        <time>2019-06-23T08:51:36Z</time>
      </trkpt>
      <trkpt lat="43.43525" lon="5.86354">
        <ele>351.02</ele>
        <time>2019-06-23T08:51:44Z</time>
      </trkpt>
      <trkpt lat="43.43534" lon="5.86349">
        <ele>350.54</ele>
        <time>2019-06-23T08:51:46Z</time>
      </trkpt>
      <trkpt lat="43.43586" lon="5.86335">
        <ele>347.17</ele>
        <time>2019-06-23T08:51:54Z</time>
      </trkpt>
      <trkpt lat="43.43595" lon="5.86333">
        <ele>346.69</ele>
        <time>2019-06-23T08:51:55Z</time>
      </trkpt>
      <trkpt lat="43.4364" lon="5.86324">
        <ele>344.29</ele>
        <time>2019-06-23T08:52:00Z</time>
      </trkpt>
      <trkpt lat="43.43736" lon="5.86327">
        <ele>344.77</ele>
        <time>2019-06-23T08:52:12Z</time>
      </trkpt>
      <trkpt lat="43.43816" lon="5.8632">
        <ele>347.17</ele>
        <time>2019-06-23T08:52:21Z</time>
      </trkpt>
      <trkpt lat="43.4388" lon="5.8631">
        <ele>346.21</ele>
        <time>2019-06-23T08:52:32Z</time>
      </trkpt>
      <trkpt lat="43.43969" lon="5.86302">
        <ele>346.69</ele>
        <time>2019-06-23T08:52:49Z</time>
      </trkpt>
      <trkpt lat="43.44017" lon="5.86304">
        <ele>345.25</ele>
        <time>2019-06-23T08:52:59Z</time>
      </trkpt>
      <trkpt lat="43.44023" lon="5.86304">
        <ele>345.25</ele>
        <time>2019-06-23T08:53:00Z</time>
      </trkpt>
      <trkpt lat="43.44027" lon="5.86303">
        <ele>345.25</ele>
        <time>2019-06-23T08:53:01Z</time>
      </trkpt>
      <trkpt lat="43.44031" lon="5.86301">
        <ele>345.25</ele>
        <time>2019-06-23T08:53:02Z</time>
      </trkpt>
      <trkpt lat="43.44035" lon="5.86297">
        <ele>345.25</ele>
        <time>2019-06-23T08:53:03Z</time>
      </trkpt>
      <trkpt lat="43.44038" lon="5.86292">
        <ele>345.25</ele>
        <time>2019-06-23T08:53:04Z</time>
      </trkpt>
      <trkpt lat="43.4404" lon="5.86287">
        <ele>345.25</ele>
        <time>2019-06-23T08:53:05Z</time>
      </trkpt>
      <trkpt lat="43.44041" lon="5.8628">
        <ele>345.25</ele>
        <time>2019-06-23T08:53:06Z</time>
      </trkpt>
      <trkpt lat="43.4404" lon="5.86275">
        <ele>345.25</ele>
        <time>2019-06-23T08:53:07Z</time>
      </trkpt>
      <trkpt lat="43.44038" lon="5.86269">
        <ele>346.21</ele>
        <time>2019-06-23T08:53:08Z</time>
      </trkpt>
      <trkpt lat="43.44035" lon="5.86246">
        <ele>348.13</ele>
        <time>2019-06-23T08:53:13Z</time>
      </trkpt>
      <trkpt lat="43.44036" lon="5.86241">
        <ele>348.13</ele>
        <time>2019-06-23T08:53:14Z</time>
      </trkpt>
      <trkpt lat="43.44029" lon="5.86179">
        <ele>351.5</ele>
        <time>2019-06-23T08:53:27Z</time>
      </trkpt>
      <trkpt lat="43.44026" lon="5.86165">
        <ele>351.98</ele>
        <time>2019-06-23T08:53:31Z</time>
      </trkpt>
      <trkpt lat="43.44025" lon="5.86164">
        <ele>351.98</ele>
        <time>2019-06-23T08:53:32Z</time>
      </trkpt>
      <trkpt lat="43.44023" lon="5.86164">
        <ele>351.5</ele>
        <time>2019-06-23T08:53:33Z</time>
      </trkpt>
      <trkpt lat="43.43997" lon="5.86157">
        <ele>352.46</ele>
        <time>2019-06-23T08:53:42Z</time>
      </trkpt>
      <trkpt lat="43.43996" lon="5.86154">
        <ele>352.46</ele>
        <time>2019-06-23T08:53:43Z</time>
      </trkpt>
      <trkpt lat="43.43995" lon="5.86151">
        <ele>352.46</ele>
        <time>2019-06-23T08:53:44Z</time>
      </trkpt>
      <trkpt lat="43.43993" lon="5.86148">
        <ele>352.46</ele>
        <time>2019-06-23T08:53:45Z</time>
      </trkpt>
      <trkpt lat="43.43992" lon="5.86146">
        <ele>352.46</ele>
        <time>2019-06-23T08:53:46Z</time>
      </trkpt>
      <trkpt lat="43.4399" lon="5.86143">
        <ele>352.94</ele>
        <time>2019-06-23T08:53:47Z</time>
      </trkpt>
      <trkpt lat="43.43989" lon="5.86139">
        <ele>352.94</ele>
        <time>2019-06-23T08:53:48Z</time>
      </trkpt>
      <trkpt lat="43.43987" lon="5.86136">
        <ele>352.94</ele>
        <time>2019-06-23T08:53:49Z</time>
      </trkpt>
      <trkpt lat="43.43968" lon="5.86092">
        <ele>354.86</ele>
        <time>2019-06-23T08:54:03Z</time>
      </trkpt>
      <trkpt lat="43.43966" lon="5.86088">
        <ele>355.34</ele>
        <time>2019-06-23T08:54:05Z</time>
      </trkpt>
      <trkpt lat="43.43971" lon="5.86061">
        <ele>355.83</ele>
        <time>2019-06-23T08:54:16Z</time>
      </trkpt>
      <trkpt lat="43.43968" lon="5.86051">
        <ele>356.79</ele>
        <time>2019-06-23T08:54:36Z</time>
      </trkpt>
      <trkpt lat="43.4397" lon="5.86041">
        <ele>357.27</ele>
        <time>2019-06-23T08:55:08Z</time>
      </trkpt>
      <trkpt lat="43.43968" lon="5.86041">
        <ele>357.75</ele>
        <time>2019-06-23T08:55:20Z</time>
      </trkpt>
      <trkpt lat="43.43978" lon="5.86029">
        <ele>357.75</ele>
        <time>2019-06-23T08:55:47Z</time>
      </trkpt>
      <trkpt lat="43.43984" lon="5.86026">
        <ele>358.23</ele>
        <time>2019-06-23T08:56:09Z</time>
      </trkpt>
      <trkpt lat="43.43972" lon="5.86024">
        <ele>358.23</ele>
        <time>2019-06-23T08:56:36Z</time>
      </trkpt>
      <trkpt lat="43.43971" lon="5.86023">
        <ele>358.23</ele>
        <time>2019-06-23T08:57:07Z</time>
      </trkpt>
      <trkpt lat="43.43969" lon="5.86022">
        <ele>358.23</ele>
        <time>2019-06-23T08:57:43Z</time>
      </trkpt>
      <trkpt lat="43.43969" lon="5.86023">
        <ele>358.23</ele>
        <time>2019-06-23T08:58:14Z</time>
      </trkpt>
      <trkpt lat="43.43967" lon="5.86024">
        <ele>358.23</ele>
        <time>2019-06-23T08:58:45Z</time>
      </trkpt>
      <trkpt lat="43.43967" lon="5.86023">
        <ele>358.23</ele>
        <time>2019-06-23T08:59:19Z</time>
      </trkpt>
      <trkpt lat="43.43965" lon="5.86022">
        <ele>358.71</ele>
        <time>2019-06-23T08:59:58Z</time>
      </trkpt>
      <trkpt lat="43.43957" lon="5.86019">
        <ele>358.71</ele>
        <time>2019-06-23T09:00:31Z</time>
      </trkpt>
      <trkpt lat="43.43955" lon="5.86018">
        <ele>358.71</ele>
        <time>2019-06-23T09:01:11Z</time>
      </trkpt>
      <trkpt lat="43.43961" lon="5.86019">
        <ele>358.23</ele>
        <time>2019-06-23T09:01:45Z</time>
      </trkpt>
      <trkpt lat="43.43958" lon="5.86019">
        <ele>358.23</ele>
        <time>2019-06-23T09:02:19Z</time>
      </trkpt>
      <trkpt lat="43.43957" lon="5.86017">
        <ele>358.23</ele>
        <time>2019-06-23T09:02:51Z</time>
      </trkpt>
      <trkpt lat="43.43957" lon="5.86019">
        <ele>358.23</ele>
        <time>2019-06-23T09:03:17Z</time>
      </trkpt>
      <trkpt lat="43.43956" lon="5.8602">
        <ele>357.75</ele>
        <time>2019-06-23T09:03:48Z</time>
      </trkpt>
      <trkpt lat="43.43954" lon="5.86021">
        <ele>357.75</ele>
        <time>2019-06-23T09:04:19Z</time>
      </trkpt>
      <trkpt lat="43.43953" lon="5.86021">
        <ele>357.75</ele>
        <time>2019-06-23T09:04:57Z</time>
      </trkpt>
      <trkpt lat="43.43964" lon="5.86024">
        <ele>357.75</ele>
        <time>2019-06-23T09:05:35Z</time>
      </trkpt>
      <trkpt lat="43.43966" lon="5.86024">
        <ele>357.75</ele>
        <time>2019-06-23T09:06:20Z</time>
      </trkpt>
      <trkpt lat="43.43966" lon="5.86019">
        <ele>357.75</ele>
        <time>2019-06-23T09:06:57Z</time>
      </trkpt>
      <trkpt lat="43.43967" lon="5.86018">
        <ele>357.75</ele>
        <time>2019-06-23T09:07:39Z</time>
      </trkpt>
      <trkpt lat="43.43963" lon="5.86019">
        <ele>357.75</ele>
        <time>2019-06-23T09:08:26Z</time>
      </trkpt>
      <trkpt lat="43.43964" lon="5.86021">
        <ele>357.75</ele>
        <time>2019-06-23T09:09:06Z</time>
      </trkpt>
      <trkpt lat="43.43967" lon="5.86021">
        <ele>357.27</ele>
        <time>2019-06-23T09:09:52Z</time>
      </trkpt>
      <trkpt lat="43.43968" lon="5.86023">
        <ele>357.27</ele>
        <time>2019-06-23T09:10:30Z</time>
      </trkpt>
      <trkpt lat="43.43962" lon="5.86021">
        <ele>357.27</ele>
        <time>2019-06-23T09:11:04Z</time>
      </trkpt>
      <trkpt lat="43.4396" lon="5.86019">
        <ele>357.27</ele>
        <time>2019-06-23T09:11:29Z</time>
      </trkpt>
      <trkpt lat="43.4396" lon="5.86018">
        <ele>356.79</ele>
        <time>2019-06-23T09:12:06Z</time>
      </trkpt>
      <trkpt lat="43.43967" lon="5.8602">
        <ele>356.79</ele>
        <time>2019-06-23T09:12:43Z</time>
      </trkpt>
      <trkpt lat="43.43969" lon="5.86021">
        <ele>356.31</ele>
        <time>2019-06-23T09:13:16Z</time>
      </trkpt>
      <trkpt lat="43.43963" lon="5.86024">
        <ele>356.31</ele>
        <time>2019-06-23T09:13:49Z</time>
      </trkpt>
      <trkpt lat="43.43972" lon="5.86029">
        <ele>356.31</ele>
        <time>2019-06-23T09:14:09Z</time>
      </trkpt>
      <trkpt lat="43.43974" lon="5.86011">
        <ele>357.27</ele>
        <time>2019-06-23T09:14:38Z</time>
      </trkpt>
    </trkseg>
  </trk>
</gpx>